<?xml version="1.0" encoding="UTF-8" standalone="no" ?>
<gpx xmlns="http://www.topografix.com/GPX/1/1" xmlns:xsi="http://www.w3.org/2001/XMLSchema-instance" xsi:schemaLocation="http://www.topografix.com/GPX/1/1 http://www.topografix.com/GPX/1/1/gpx.xsd" version="1.1" creator="VisuGPX - https://www.visugpx.com">
  <metadata>
    <name>VTT lyon est 2017</name>
    <desc><![CDATA[Rando organisée au départ de Messimy
Pour info dénivelé 907m avec alti barométrique]]></desc>
  </metadata>
  <trk>
    <name><![CDATA[VTT lyon est 2017_1]]></name>
    <trkseg>
      <trkpt lat="45.69098" lon="4.6748">
        <ele>328</ele>
        <time>2017-06-04T06:37:35Z</time>
      </trkpt>
      <trkpt lat="45.69098" lon="4.6748">
        <ele>328</ele>
        <time>2017-06-04T06:37:37Z</time>
      </trkpt>
      <trkpt lat="45.69114" lon="4.67477">
        <ele>328</ele>
        <time>2017-06-04T06:37:48Z</time>
      </trkpt>
      <trkpt lat="45.6914" lon="4.67493">
        <ele>329</ele>
        <time>2017-06-04T06:37:56Z</time>
      </trkpt>
      <trkpt lat="45.69159" lon="4.67497">
        <ele>329</ele>
        <time>2017-06-04T06:38:01Z</time>
      </trkpt>
      <trkpt lat="45.69181" lon="4.67476">
        <ele>330</ele>
        <time>2017-06-04T06:38:09Z</time>
      </trkpt>
      <trkpt lat="45.69181" lon="4.67449">
        <ele>331</ele>
        <time>2017-06-04T06:38:17Z</time>
      </trkpt>
      <trkpt lat="45.69163" lon="4.67417">
        <ele>330</ele>
        <time>2017-06-04T06:38:26Z</time>
      </trkpt>
      <trkpt lat="45.69143" lon="4.67411">
        <ele>330</ele>
        <time>2017-06-04T06:38:32Z</time>
      </trkpt>
      <trkpt lat="45.69118" lon="4.67412">
        <ele>329</ele>
        <time>2017-06-04T06:38:38Z</time>
      </trkpt>
      <trkpt lat="45.69092" lon="4.67412">
        <ele>329</ele>
        <time>2017-06-04T06:38:43Z</time>
      </trkpt>
      <trkpt lat="45.69062" lon="4.67412">
        <ele>328</ele>
        <time>2017-06-04T06:38:49Z</time>
      </trkpt>
      <trkpt lat="45.69029" lon="4.6741">
        <ele>328</ele>
        <time>2017-06-04T06:38:55Z</time>
      </trkpt>
      <trkpt lat="45.68999" lon="4.67408">
        <ele>327</ele>
        <time>2017-06-04T06:39:00Z</time>
      </trkpt>
      <trkpt lat="45.68953" lon="4.67406">
        <ele>326</ele>
        <time>2017-06-04T06:39:07Z</time>
      </trkpt>
      <trkpt lat="45.68919" lon="4.67411">
        <ele>325</ele>
        <time>2017-06-04T06:39:12Z</time>
      </trkpt>
      <trkpt lat="45.68898" lon="4.6741">
        <ele>325</ele>
        <time>2017-06-04T06:39:15Z</time>
      </trkpt>
      <trkpt lat="45.68865" lon="4.67398">
        <ele>324</ele>
        <time>2017-06-04T06:39:20Z</time>
      </trkpt>
      <trkpt lat="45.68798" lon="4.67406">
        <ele>323</ele>
        <time>2017-06-04T06:39:37Z</time>
      </trkpt>
      <trkpt lat="45.68769" lon="4.67395">
        <ele>323</ele>
        <time>2017-06-04T06:39:45Z</time>
      </trkpt>
      <trkpt lat="45.68733" lon="4.67377">
        <ele>323</ele>
        <time>2017-06-04T06:39:54Z</time>
      </trkpt>
      <trkpt lat="45.68697" lon="4.67363">
        <ele>322</ele>
        <time>2017-06-04T06:40:04Z</time>
      </trkpt>
      <trkpt lat="45.68697" lon="4.67363">
        <ele>322</ele>
        <time>2017-06-04T06:40:14Z</time>
      </trkpt>
      <trkpt lat="45.68697" lon="4.67363">
        <ele>322</ele>
        <time>2017-06-04T06:40:58Z</time>
      </trkpt>
      <trkpt lat="45.68657" lon="4.6734">
        <ele>321</ele>
        <time>2017-06-04T06:41:02Z</time>
      </trkpt>
      <trkpt lat="45.68629" lon="4.67324">
        <ele>320</ele>
        <time>2017-06-04T06:41:09Z</time>
      </trkpt>
      <trkpt lat="45.68608" lon="4.67308">
        <ele>320</ele>
        <time>2017-06-04T06:41:16Z</time>
      </trkpt>
      <trkpt lat="45.68545" lon="4.67287">
        <ele>315</ele>
        <time>2017-06-04T06:41:29Z</time>
      </trkpt>
      <trkpt lat="45.68472" lon="4.67435">
        <ele>304</ele>
        <time>2017-06-04T06:41:39Z</time>
      </trkpt>
      <trkpt lat="45.68482" lon="4.6751">
        <ele>301</ele>
        <time>2017-06-04T06:41:44Z</time>
      </trkpt>
      <trkpt lat="45.6848" lon="4.67546">
        <ele>301</ele>
        <time>2017-06-04T06:41:50Z</time>
      </trkpt>
      <trkpt lat="45.68468" lon="4.67573">
        <ele>301</ele>
        <time>2017-06-04T06:41:57Z</time>
      </trkpt>
      <trkpt lat="45.68482" lon="4.67599">
        <ele>301</ele>
        <time>2017-06-04T06:42:08Z</time>
      </trkpt>
      <trkpt lat="45.6849" lon="4.67639">
        <ele>301</ele>
        <time>2017-06-04T06:42:23Z</time>
      </trkpt>
      <trkpt lat="45.68469" lon="4.67688">
        <ele>303</ele>
        <time>2017-06-04T06:42:35Z</time>
      </trkpt>
      <trkpt lat="45.68456" lon="4.677">
        <ele>303</ele>
        <time>2017-06-04T06:42:40Z</time>
      </trkpt>
      <trkpt lat="45.68446" lon="4.67705">
        <ele>304</ele>
        <time>2017-06-04T06:42:45Z</time>
      </trkpt>
      <trkpt lat="45.68426" lon="4.67716">
        <ele>304</ele>
        <time>2017-06-04T06:42:54Z</time>
      </trkpt>
      <trkpt lat="45.68411" lon="4.6772">
        <ele>308</ele>
        <time>2017-06-04T06:43:02Z</time>
      </trkpt>
      <trkpt lat="45.68386" lon="4.6773">
        <ele>309</ele>
        <time>2017-06-04T06:43:09Z</time>
      </trkpt>
      <trkpt lat="45.6837" lon="4.67734">
        <ele>309</ele>
        <time>2017-06-04T06:43:17Z</time>
      </trkpt>
      <trkpt lat="45.68343" lon="4.67743">
        <ele>311</ele>
        <time>2017-06-04T06:43:29Z</time>
      </trkpt>
      <trkpt lat="45.68317" lon="4.67752">
        <ele>315</ele>
        <time>2017-06-04T06:43:43Z</time>
      </trkpt>
      <trkpt lat="45.68297" lon="4.67759">
        <ele>316</ele>
        <time>2017-06-04T06:43:52Z</time>
      </trkpt>
      <trkpt lat="45.68288" lon="4.67761">
        <ele>317</ele>
        <time>2017-06-04T06:43:57Z</time>
      </trkpt>
      <trkpt lat="45.68255" lon="4.67771">
        <ele>319</ele>
        <time>2017-06-04T06:44:15Z</time>
      </trkpt>
      <trkpt lat="45.68236" lon="4.67778">
        <ele>324</ele>
        <time>2017-06-04T06:44:23Z</time>
      </trkpt>
      <trkpt lat="45.68233" lon="4.67801">
        <ele>324</ele>
        <time>2017-06-04T06:44:31Z</time>
      </trkpt>
      <trkpt lat="45.68235" lon="4.67823">
        <ele>323</ele>
        <time>2017-06-04T06:44:37Z</time>
      </trkpt>
      <trkpt lat="45.68236" lon="4.67849">
        <ele>324</ele>
        <time>2017-06-04T06:44:44Z</time>
      </trkpt>
      <trkpt lat="45.6824" lon="4.67878">
        <ele>325</ele>
        <time>2017-06-04T06:44:52Z</time>
      </trkpt>
      <trkpt lat="45.68249" lon="4.67911">
        <ele>324</ele>
        <time>2017-06-04T06:45:01Z</time>
      </trkpt>
      <trkpt lat="45.68254" lon="4.67929">
        <ele>322</ele>
        <time>2017-06-04T06:45:06Z</time>
      </trkpt>
      <trkpt lat="45.68259" lon="4.67944">
        <ele>322</ele>
        <time>2017-06-04T06:45:10Z</time>
      </trkpt>
      <trkpt lat="45.68264" lon="4.67963">
        <ele>322</ele>
        <time>2017-06-04T06:45:17Z</time>
      </trkpt>
      <trkpt lat="45.68274" lon="4.68021">
        <ele>324</ele>
        <time>2017-06-04T06:45:30Z</time>
      </trkpt>
      <trkpt lat="45.68278" lon="4.68042">
        <ele>324</ele>
        <time>2017-06-04T06:45:35Z</time>
      </trkpt>
      <trkpt lat="45.68281" lon="4.68076">
        <ele>324</ele>
        <time>2017-06-04T06:45:44Z</time>
      </trkpt>
      <trkpt lat="45.68288" lon="4.68132">
        <ele>323</ele>
        <time>2017-06-04T06:45:56Z</time>
      </trkpt>
      <trkpt lat="45.68294" lon="4.68208">
        <ele>321</ele>
        <time>2017-06-04T06:46:06Z</time>
      </trkpt>
      <trkpt lat="45.68298" lon="4.68256">
        <ele>319</ele>
        <time>2017-06-04T06:46:12Z</time>
      </trkpt>
      <trkpt lat="45.68303" lon="4.68304">
        <ele>319</ele>
        <time>2017-06-04T06:46:18Z</time>
      </trkpt>
      <trkpt lat="45.68306" lon="4.6837">
        <ele>318</ele>
        <time>2017-06-04T06:46:25Z</time>
      </trkpt>
      <trkpt lat="45.68323" lon="4.68439">
        <ele>319</ele>
        <time>2017-06-04T06:46:31Z</time>
      </trkpt>
      <trkpt lat="45.68348" lon="4.68481">
        <ele>319</ele>
        <time>2017-06-04T06:46:37Z</time>
      </trkpt>
      <trkpt lat="45.68364" lon="4.68512">
        <ele>322</ele>
        <time>2017-06-04T06:46:43Z</time>
      </trkpt>
      <trkpt lat="45.68378" lon="4.68538">
        <ele>323</ele>
        <time>2017-06-04T06:46:48Z</time>
      </trkpt>
      <trkpt lat="45.68394" lon="4.68568">
        <ele>323</ele>
        <time>2017-06-04T06:46:55Z</time>
      </trkpt>
      <trkpt lat="45.6841" lon="4.686">
        <ele>325</ele>
        <time>2017-06-04T06:47:02Z</time>
      </trkpt>
      <trkpt lat="45.68427" lon="4.68637">
        <ele>322</ele>
        <time>2017-06-04T06:47:09Z</time>
      </trkpt>
      <trkpt lat="45.68443" lon="4.68673">
        <ele>323</ele>
        <time>2017-06-04T06:47:15Z</time>
      </trkpt>
      <trkpt lat="45.68452" lon="4.68691">
        <ele>322</ele>
        <time>2017-06-04T06:47:18Z</time>
      </trkpt>
      <trkpt lat="45.68467" lon="4.68723">
        <ele>322</ele>
        <time>2017-06-04T06:47:23Z</time>
      </trkpt>
      <trkpt lat="45.68475" lon="4.68742">
        <ele>322</ele>
        <time>2017-06-04T06:47:26Z</time>
      </trkpt>
      <trkpt lat="45.68483" lon="4.6876">
        <ele>323</ele>
        <time>2017-06-04T06:47:29Z</time>
      </trkpt>
      <trkpt lat="45.68492" lon="4.68777">
        <ele>323</ele>
        <time>2017-06-04T06:47:32Z</time>
      </trkpt>
      <trkpt lat="45.685" lon="4.68795">
        <ele>324</ele>
        <time>2017-06-04T06:47:35Z</time>
      </trkpt>
      <trkpt lat="45.68509" lon="4.68814">
        <ele>320</ele>
        <time>2017-06-04T06:47:39Z</time>
      </trkpt>
      <trkpt lat="45.68523" lon="4.68855">
        <ele>320</ele>
        <time>2017-06-04T06:47:44Z</time>
      </trkpt>
      <trkpt lat="45.68533" lon="4.68891">
        <ele>320</ele>
        <time>2017-06-04T06:47:49Z</time>
      </trkpt>
      <trkpt lat="45.68541" lon="4.68932">
        <ele>319</ele>
        <time>2017-06-04T06:47:54Z</time>
      </trkpt>
      <trkpt lat="45.6855" lon="4.68984">
        <ele>318</ele>
        <time>2017-06-04T06:48:00Z</time>
      </trkpt>
      <trkpt lat="45.68553" lon="4.69022">
        <ele>318</ele>
        <time>2017-06-04T06:48:05Z</time>
      </trkpt>
      <trkpt lat="45.6856" lon="4.69081">
        <ele>317</ele>
        <time>2017-06-04T06:48:10Z</time>
      </trkpt>
      <trkpt lat="45.68568" lon="4.69105">
        <ele>318</ele>
        <time>2017-06-04T06:48:13Z</time>
      </trkpt>
      <trkpt lat="45.68574" lon="4.69128">
        <ele>318</ele>
        <time>2017-06-04T06:48:17Z</time>
      </trkpt>
      <trkpt lat="45.68578" lon="4.69195">
        <ele>321</ele>
        <time>2017-06-04T06:48:27Z</time>
      </trkpt>
      <trkpt lat="45.68577" lon="4.69221">
        <ele>322</ele>
        <time>2017-06-04T06:48:32Z</time>
      </trkpt>
      <trkpt lat="45.6857" lon="4.69266">
        <ele>323</ele>
        <time>2017-06-04T06:48:41Z</time>
      </trkpt>
      <trkpt lat="45.68562" lon="4.69295">
        <ele>325</ele>
        <time>2017-06-04T06:48:48Z</time>
      </trkpt>
      <trkpt lat="45.68555" lon="4.69317">
        <ele>326</ele>
        <time>2017-06-04T06:48:53Z</time>
      </trkpt>
      <trkpt lat="45.68547" lon="4.69341">
        <ele>327</ele>
        <time>2017-06-04T06:49:00Z</time>
      </trkpt>
      <trkpt lat="45.68537" lon="4.69369">
        <ele>327</ele>
        <time>2017-06-04T06:49:08Z</time>
      </trkpt>
      <trkpt lat="45.68523" lon="4.69411">
        <ele>329</ele>
        <time>2017-06-04T06:49:16Z</time>
      </trkpt>
      <trkpt lat="45.68515" lon="4.69434">
        <ele>329</ele>
        <time>2017-06-04T06:49:23Z</time>
      </trkpt>
      <trkpt lat="45.68504" lon="4.69465">
        <ele>329</ele>
        <time>2017-06-04T06:49:30Z</time>
      </trkpt>
      <trkpt lat="45.685" lon="4.69478">
        <ele>333</ele>
        <time>2017-06-04T06:49:33Z</time>
      </trkpt>
      <trkpt lat="45.68494" lon="4.69497">
        <ele>333</ele>
        <time>2017-06-04T06:49:37Z</time>
      </trkpt>
      <trkpt lat="45.68489" lon="4.6952">
        <ele>333</ele>
        <time>2017-06-04T06:49:42Z</time>
      </trkpt>
      <trkpt lat="45.68487" lon="4.6953">
        <ele>334</ele>
        <time>2017-06-04T06:49:48Z</time>
      </trkpt>
      <trkpt lat="45.68485" lon="4.69589">
        <ele>334</ele>
        <time>2017-06-04T06:49:55Z</time>
      </trkpt>
      <trkpt lat="45.68483" lon="4.69615">
        <ele>336</ele>
        <time>2017-06-04T06:50:00Z</time>
      </trkpt>
      <trkpt lat="45.68478" lon="4.6964">
        <ele>337</ele>
        <time>2017-06-04T06:50:06Z</time>
      </trkpt>
      <trkpt lat="45.6847" lon="4.69664">
        <ele>337</ele>
        <time>2017-06-04T06:50:12Z</time>
      </trkpt>
      <trkpt lat="45.68463" lon="4.69692">
        <ele>340</ele>
        <time>2017-06-04T06:50:19Z</time>
      </trkpt>
      <trkpt lat="45.68457" lon="4.69709">
        <ele>340</ele>
        <time>2017-06-04T06:50:24Z</time>
      </trkpt>
      <trkpt lat="45.68452" lon="4.69729">
        <ele>341</ele>
        <time>2017-06-04T06:50:29Z</time>
      </trkpt>
      <trkpt lat="45.68447" lon="4.69749">
        <ele>342</ele>
        <time>2017-06-04T06:50:35Z</time>
      </trkpt>
      <trkpt lat="45.68439" lon="4.69775">
        <ele>344</ele>
        <time>2017-06-04T06:50:43Z</time>
      </trkpt>
      <trkpt lat="45.68427" lon="4.69805">
        <ele>346</ele>
        <time>2017-06-04T06:50:51Z</time>
      </trkpt>
      <trkpt lat="45.68414" lon="4.6983">
        <ele>349</ele>
        <time>2017-06-04T06:50:59Z</time>
      </trkpt>
      <trkpt lat="45.68406" lon="4.69845">
        <ele>350</ele>
        <time>2017-06-04T06:51:05Z</time>
      </trkpt>
      <trkpt lat="45.68389" lon="4.69895">
        <ele>351</ele>
        <time>2017-06-04T06:51:19Z</time>
      </trkpt>
      <trkpt lat="45.68395" lon="4.6994">
        <ele>352</ele>
        <time>2017-06-04T06:51:30Z</time>
      </trkpt>
      <trkpt lat="45.68429" lon="4.69941">
        <ele>350</ele>
        <time>2017-06-04T06:51:39Z</time>
      </trkpt>
      <trkpt lat="45.68457" lon="4.69935">
        <ele>349</ele>
        <time>2017-06-04T06:51:47Z</time>
      </trkpt>
      <trkpt lat="45.68473" lon="4.69923">
        <ele>348</ele>
        <time>2017-06-04T06:51:52Z</time>
      </trkpt>
      <trkpt lat="45.68484" lon="4.69886">
        <ele>347</ele>
        <time>2017-06-04T06:51:59Z</time>
      </trkpt>
      <trkpt lat="45.68534" lon="4.69851">
        <ele>340</ele>
        <time>2017-06-04T06:52:07Z</time>
      </trkpt>
      <trkpt lat="45.68599" lon="4.6981">
        <ele>329</ele>
        <time>2017-06-04T06:52:13Z</time>
      </trkpt>
      <trkpt lat="45.68662" lon="4.69768">
        <ele>324</ele>
        <time>2017-06-04T06:52:18Z</time>
      </trkpt>
      <trkpt lat="45.68716" lon="4.69731">
        <ele>318</ele>
        <time>2017-06-04T06:52:24Z</time>
      </trkpt>
      <trkpt lat="45.68759" lon="4.69697">
        <ele>313</ele>
        <time>2017-06-04T06:52:29Z</time>
      </trkpt>
      <trkpt lat="45.68805" lon="4.69658">
        <ele>311</ele>
        <time>2017-06-04T06:52:35Z</time>
      </trkpt>
      <trkpt lat="45.68842" lon="4.69631">
        <ele>309</ele>
        <time>2017-06-04T06:52:41Z</time>
      </trkpt>
      <trkpt lat="45.68872" lon="4.69619">
        <ele>308</ele>
        <time>2017-06-04T06:52:46Z</time>
      </trkpt>
      <trkpt lat="45.6889" lon="4.69611">
        <ele>308</ele>
        <time>2017-06-04T06:52:49Z</time>
      </trkpt>
      <trkpt lat="45.68917" lon="4.69589">
        <ele>308</ele>
        <time>2017-06-04T06:52:54Z</time>
      </trkpt>
      <trkpt lat="45.68931" lon="4.69575">
        <ele>307</ele>
        <time>2017-06-04T06:52:57Z</time>
      </trkpt>
      <trkpt lat="45.68948" lon="4.69556">
        <ele>307</ele>
        <time>2017-06-04T06:53:02Z</time>
      </trkpt>
      <trkpt lat="45.68973" lon="4.69536">
        <ele>306</ele>
        <time>2017-06-04T06:53:07Z</time>
      </trkpt>
      <trkpt lat="45.69023" lon="4.69523">
        <ele>303</ele>
        <time>2017-06-04T06:53:15Z</time>
      </trkpt>
      <trkpt lat="45.69049" lon="4.69518">
        <ele>302</ele>
        <time>2017-06-04T06:53:20Z</time>
      </trkpt>
      <trkpt lat="45.69095" lon="4.69502">
        <ele>298</ele>
        <time>2017-06-04T06:53:26Z</time>
      </trkpt>
      <trkpt lat="45.69135" lon="4.69473">
        <ele>293</ele>
        <time>2017-06-04T06:53:32Z</time>
      </trkpt>
      <trkpt lat="45.69166" lon="4.69435">
        <ele>291</ele>
        <time>2017-06-04T06:53:37Z</time>
      </trkpt>
      <trkpt lat="45.69182" lon="4.69408">
        <ele>288</ele>
        <time>2017-06-04T06:53:43Z</time>
      </trkpt>
      <trkpt lat="45.6922" lon="4.69346">
        <ele>288</ele>
        <time>2017-06-04T06:53:48Z</time>
      </trkpt>
      <trkpt lat="45.69244" lon="4.6932">
        <ele>287</ele>
        <time>2017-06-04T06:53:53Z</time>
      </trkpt>
      <trkpt lat="45.69264" lon="4.69289">
        <ele>289</ele>
        <time>2017-06-04T06:55:17Z</time>
      </trkpt>
      <trkpt lat="45.69275" lon="4.69265">
        <ele>289</ele>
        <time>2017-06-04T06:55:30Z</time>
      </trkpt>
      <trkpt lat="45.69304" lon="4.69264">
        <ele>290</ele>
        <time>2017-06-04T06:55:45Z</time>
      </trkpt>
      <trkpt lat="45.69314" lon="4.69273">
        <ele>290</ele>
        <time>2017-06-04T06:55:57Z</time>
      </trkpt>
      <trkpt lat="45.69341" lon="4.69283">
        <ele>294</ele>
        <time>2017-06-04T06:56:13Z</time>
      </trkpt>
      <trkpt lat="45.69359" lon="4.69279">
        <ele>294</ele>
        <time>2017-06-04T06:56:26Z</time>
      </trkpt>
      <trkpt lat="45.69374" lon="4.69273">
        <ele>295</ele>
        <time>2017-06-04T06:56:37Z</time>
      </trkpt>
      <trkpt lat="45.69387" lon="4.6927">
        <ele>297</ele>
        <time>2017-06-04T06:56:46Z</time>
      </trkpt>
      <trkpt lat="45.69409" lon="4.6926">
        <ele>300</ele>
        <time>2017-06-04T06:57:02Z</time>
      </trkpt>
      <trkpt lat="45.69433" lon="4.69246">
        <ele>306</ele>
        <time>2017-06-04T06:57:19Z</time>
      </trkpt>
      <trkpt lat="45.6945" lon="4.6923">
        <ele>309</ele>
        <time>2017-06-04T06:57:34Z</time>
      </trkpt>
      <trkpt lat="45.69474" lon="4.69233">
        <ele>310</ele>
        <time>2017-06-04T06:57:49Z</time>
      </trkpt>
      <trkpt lat="45.69483" lon="4.69214">
        <ele>311</ele>
        <time>2017-06-04T06:58:00Z</time>
      </trkpt>
      <trkpt lat="45.69489" lon="4.69193">
        <ele>313</ele>
        <time>2017-06-04T06:58:13Z</time>
      </trkpt>
      <trkpt lat="45.69494" lon="4.69177">
        <ele>315</ele>
        <time>2017-06-04T06:58:19Z</time>
      </trkpt>
      <trkpt lat="45.69502" lon="4.69151">
        <ele>319</ele>
        <time>2017-06-04T06:58:32Z</time>
      </trkpt>
      <trkpt lat="45.6952" lon="4.69146">
        <ele>320</ele>
        <time>2017-06-04T06:58:47Z</time>
      </trkpt>
      <trkpt lat="45.69529" lon="4.69129">
        <ele>320</ele>
        <time>2017-06-04T06:58:58Z</time>
      </trkpt>
      <trkpt lat="45.69537" lon="4.69102">
        <ele>321</ele>
        <time>2017-06-04T06:59:10Z</time>
      </trkpt>
      <trkpt lat="45.69544" lon="4.6908">
        <ele>323</ele>
        <time>2017-06-04T06:59:17Z</time>
      </trkpt>
      <trkpt lat="45.69551" lon="4.69066">
        <ele>323</ele>
        <time>2017-06-04T06:59:22Z</time>
      </trkpt>
      <trkpt lat="45.69551" lon="4.69066">
        <ele>323</ele>
        <time>2017-06-04T06:59:30Z</time>
      </trkpt>
      <trkpt lat="45.69551" lon="4.69066">
        <ele>323</ele>
        <time>2017-06-04T07:00:19Z</time>
      </trkpt>
      <trkpt lat="45.69557" lon="4.69044">
        <ele>323</ele>
        <time>2017-06-04T07:00:19Z</time>
      </trkpt>
      <trkpt lat="45.69557" lon="4.69044">
        <ele>323</ele>
        <time>2017-06-04T07:00:26Z</time>
      </trkpt>
      <trkpt lat="45.69557" lon="4.69044">
        <ele>323</ele>
        <time>2017-06-04T07:00:27Z</time>
      </trkpt>
      <trkpt lat="45.69557" lon="4.69044">
        <ele>323</ele>
        <time>2017-06-04T07:00:34Z</time>
      </trkpt>
      <trkpt lat="45.69567" lon="4.6902">
        <ele>323</ele>
        <time>2017-06-04T07:02:57Z</time>
      </trkpt>
      <trkpt lat="45.6958" lon="4.68992">
        <ele>323</ele>
        <time>2017-06-04T07:03:03Z</time>
      </trkpt>
      <trkpt lat="45.69597" lon="4.68953">
        <ele>319</ele>
        <time>2017-06-04T07:03:09Z</time>
      </trkpt>
      <trkpt lat="45.69615" lon="4.68905">
        <ele>317</ele>
        <time>2017-06-04T07:03:14Z</time>
      </trkpt>
      <trkpt lat="45.69628" lon="4.68874">
        <ele>316</ele>
        <time>2017-06-04T07:03:17Z</time>
      </trkpt>
      <trkpt lat="45.69646" lon="4.68822">
        <ele>315</ele>
        <time>2017-06-04T07:03:23Z</time>
      </trkpt>
      <trkpt lat="45.69661" lon="4.68774">
        <ele>316</ele>
        <time>2017-06-04T07:03:28Z</time>
      </trkpt>
      <trkpt lat="45.69687" lon="4.68722">
        <ele>317</ele>
        <time>2017-06-04T07:03:36Z</time>
      </trkpt>
      <trkpt lat="45.69718" lon="4.68674">
        <ele>317</ele>
        <time>2017-06-04T07:03:42Z</time>
      </trkpt>
      <trkpt lat="45.69743" lon="4.68655">
        <ele>318</ele>
        <time>2017-06-04T07:03:48Z</time>
      </trkpt>
      <trkpt lat="45.69736" lon="4.68693">
        <ele>317</ele>
        <time>2017-06-04T07:03:54Z</time>
      </trkpt>
      <trkpt lat="45.69727" lon="4.68743">
        <ele>317</ele>
        <time>2017-06-04T07:03:59Z</time>
      </trkpt>
      <trkpt lat="45.69733" lon="4.68786">
        <ele>316</ele>
        <time>2017-06-04T07:04:04Z</time>
      </trkpt>
      <trkpt lat="45.69763" lon="4.68836">
        <ele>314</ele>
        <time>2017-06-04T07:04:11Z</time>
      </trkpt>
      <trkpt lat="45.69782" lon="4.68867">
        <ele>313</ele>
        <time>2017-06-04T07:04:18Z</time>
      </trkpt>
      <trkpt lat="45.69835" lon="4.6895">
        <ele>310</ele>
        <time>2017-06-04T07:04:26Z</time>
      </trkpt>
      <trkpt lat="45.69862" lon="4.68989">
        <ele>310</ele>
        <time>2017-06-04T07:04:32Z</time>
      </trkpt>
      <trkpt lat="45.69881" lon="4.69033">
        <ele>309</ele>
        <time>2017-06-04T07:04:39Z</time>
      </trkpt>
      <trkpt lat="45.69894" lon="4.69061">
        <ele>309</ele>
        <time>2017-06-04T07:04:47Z</time>
      </trkpt>
      <trkpt lat="45.69929" lon="4.69054">
        <ele>308</ele>
        <time>2017-06-04T07:04:55Z</time>
      </trkpt>
      <trkpt lat="45.69958" lon="4.69041">
        <ele>308</ele>
        <time>2017-06-04T07:05:02Z</time>
      </trkpt>
      <trkpt lat="45.69985" lon="4.69039">
        <ele>308</ele>
        <time>2017-06-04T07:05:07Z</time>
      </trkpt>
      <trkpt lat="45.69998" lon="4.69072">
        <ele>307</ele>
        <time>2017-06-04T07:05:13Z</time>
      </trkpt>
      <trkpt lat="45.70014" lon="4.69136">
        <ele>305</ele>
        <time>2017-06-04T07:05:20Z</time>
      </trkpt>
      <trkpt lat="45.70031" lon="4.69175">
        <ele>305</ele>
        <time>2017-06-04T07:05:25Z</time>
      </trkpt>
      <trkpt lat="45.7005" lon="4.69227">
        <ele>304</ele>
        <time>2017-06-04T07:05:32Z</time>
      </trkpt>
      <trkpt lat="45.70074" lon="4.69272">
        <ele>302</ele>
        <time>2017-06-04T07:05:38Z</time>
      </trkpt>
      <trkpt lat="45.70078" lon="4.69317">
        <ele>302</ele>
        <time>2017-06-04T07:05:44Z</time>
      </trkpt>
      <trkpt lat="45.70057" lon="4.69361">
        <ele>302</ele>
        <time>2017-06-04T07:05:50Z</time>
      </trkpt>
      <trkpt lat="45.69972" lon="4.69418">
        <ele>298</ele>
        <time>2017-06-04T07:06:02Z</time>
      </trkpt>
      <trkpt lat="45.69945" lon="4.69474">
        <ele>296</ele>
        <time>2017-06-04T07:06:07Z</time>
      </trkpt>
      <trkpt lat="45.69924" lon="4.69524">
        <ele>294</ele>
        <time>2017-06-04T07:06:13Z</time>
      </trkpt>
      <trkpt lat="45.69885" lon="4.69578">
        <ele>290</ele>
        <time>2017-06-04T07:06:21Z</time>
      </trkpt>
      <trkpt lat="45.69851" lon="4.6973">
        <ele>281</ele>
        <time>2017-06-04T07:06:30Z</time>
      </trkpt>
      <trkpt lat="45.69856" lon="4.69786">
        <ele>281</ele>
        <time>2017-06-04T07:06:36Z</time>
      </trkpt>
      <trkpt lat="45.69859" lon="4.69831">
        <ele>280</ele>
        <time>2017-06-04T07:06:41Z</time>
      </trkpt>
      <trkpt lat="45.69848" lon="4.69865">
        <ele>278</ele>
        <time>2017-06-04T07:06:49Z</time>
      </trkpt>
      <trkpt lat="45.69857" lon="4.69876">
        <ele>279</ele>
        <time>2017-06-04T07:06:54Z</time>
      </trkpt>
      <trkpt lat="45.69873" lon="4.6989">
        <ele>279</ele>
        <time>2017-06-04T07:07:00Z</time>
      </trkpt>
      <trkpt lat="45.69888" lon="4.69895">
        <ele>279</ele>
        <time>2017-06-04T07:07:06Z</time>
      </trkpt>
      <trkpt lat="45.69918" lon="4.69913">
        <ele>280</ele>
        <time>2017-06-04T07:07:16Z</time>
      </trkpt>
      <trkpt lat="45.69941" lon="4.69927">
        <ele>281</ele>
        <time>2017-06-04T07:07:24Z</time>
      </trkpt>
      <trkpt lat="45.69949" lon="4.69934">
        <ele>282</ele>
        <time>2017-06-04T07:07:31Z</time>
      </trkpt>
      <trkpt lat="45.69978" lon="4.69962">
        <ele>283</ele>
        <time>2017-06-04T07:07:44Z</time>
      </trkpt>
      <trkpt lat="45.69991" lon="4.70001">
        <ele>281</ele>
        <time>2017-06-04T07:07:55Z</time>
      </trkpt>
      <trkpt lat="45.70003" lon="4.70029">
        <ele>285</ele>
        <time>2017-06-04T07:08:01Z</time>
      </trkpt>
      <trkpt lat="45.7001" lon="4.70052">
        <ele>283</ele>
        <time>2017-06-04T07:08:07Z</time>
      </trkpt>
      <trkpt lat="45.70019" lon="4.7008">
        <ele>281</ele>
        <time>2017-06-04T07:08:13Z</time>
      </trkpt>
      <trkpt lat="45.70029" lon="4.70098">
        <ele>278</ele>
        <time>2017-06-04T07:08:18Z</time>
      </trkpt>
      <trkpt lat="45.7005" lon="4.70131">
        <ele>278</ele>
        <time>2017-06-04T07:08:25Z</time>
      </trkpt>
      <trkpt lat="45.70063" lon="4.70134">
        <ele>279</ele>
        <time>2017-06-04T07:08:31Z</time>
      </trkpt>
      <trkpt lat="45.7008" lon="4.70167">
        <ele>276</ele>
        <time>2017-06-04T07:08:42Z</time>
      </trkpt>
      <trkpt lat="45.70097" lon="4.70202">
        <ele>277</ele>
        <time>2017-06-04T07:08:54Z</time>
      </trkpt>
      <trkpt lat="45.70099" lon="4.7023">
        <ele>274</ele>
        <time>2017-06-04T07:09:06Z</time>
      </trkpt>
      <trkpt lat="45.70111" lon="4.70255">
        <ele>271</ele>
        <time>2017-06-04T07:09:16Z</time>
      </trkpt>
      <trkpt lat="45.70125" lon="4.70288">
        <ele>272</ele>
        <time>2017-06-04T07:09:27Z</time>
      </trkpt>
      <trkpt lat="45.70132" lon="4.70311">
        <ele>273</ele>
        <time>2017-06-04T07:09:35Z</time>
      </trkpt>
      <trkpt lat="45.70137" lon="4.70344">
        <ele>273</ele>
        <time>2017-06-04T07:09:49Z</time>
      </trkpt>
      <trkpt lat="45.70139" lon="4.70375">
        <ele>273</ele>
        <time>2017-06-04T07:10:01Z</time>
      </trkpt>
      <trkpt lat="45.70148" lon="4.70388">
        <ele>274</ele>
        <time>2017-06-04T07:10:12Z</time>
      </trkpt>
      <trkpt lat="45.7016" lon="4.70368">
        <ele>274</ele>
        <time>2017-06-04T07:10:23Z</time>
      </trkpt>
      <trkpt lat="45.70178" lon="4.7034">
        <ele>278</ele>
        <time>2017-06-04T07:10:36Z</time>
      </trkpt>
      <trkpt lat="45.70187" lon="4.70329">
        <ele>281</ele>
        <time>2017-06-04T07:10:41Z</time>
      </trkpt>
      <trkpt lat="45.70193" lon="4.7032">
        <ele>282</ele>
        <time>2017-06-04T07:10:46Z</time>
      </trkpt>
      <trkpt lat="45.70203" lon="4.70293">
        <ele>284</ele>
        <time>2017-06-04T07:10:56Z</time>
      </trkpt>
      <trkpt lat="45.70199" lon="4.70272">
        <ele>284</ele>
        <time>2017-06-04T07:11:03Z</time>
      </trkpt>
      <trkpt lat="45.70193" lon="4.70247">
        <ele>289</ele>
        <time>2017-06-04T07:11:13Z</time>
      </trkpt>
      <trkpt lat="45.70186" lon="4.70216">
        <ele>290</ele>
        <time>2017-06-04T07:11:24Z</time>
      </trkpt>
      <trkpt lat="45.70177" lon="4.702">
        <ele>291</ele>
        <time>2017-06-04T07:11:34Z</time>
      </trkpt>
      <trkpt lat="45.70167" lon="4.70163">
        <ele>293</ele>
        <time>2017-06-04T07:11:48Z</time>
      </trkpt>
      <trkpt lat="45.70152" lon="4.70127">
        <ele>292</ele>
        <time>2017-06-04T07:12:02Z</time>
      </trkpt>
      <trkpt lat="45.70143" lon="4.70105">
        <ele>293</ele>
        <time>2017-06-04T07:12:10Z</time>
      </trkpt>
      <trkpt lat="45.70133" lon="4.70087">
        <ele>293</ele>
        <time>2017-06-04T07:12:18Z</time>
      </trkpt>
      <trkpt lat="45.70125" lon="4.70058">
        <ele>299</ele>
        <time>2017-06-04T07:12:30Z</time>
      </trkpt>
      <trkpt lat="45.7015" lon="4.70048">
        <ele>301</ele>
        <time>2017-06-04T07:12:42Z</time>
      </trkpt>
      <trkpt lat="45.70172" lon="4.70041">
        <ele>305</ele>
        <time>2017-06-04T07:12:52Z</time>
      </trkpt>
      <trkpt lat="45.70193" lon="4.70037">
        <ele>305</ele>
        <time>2017-06-04T07:13:01Z</time>
      </trkpt>
      <trkpt lat="45.70216" lon="4.70033">
        <ele>305</ele>
        <time>2017-06-04T07:13:10Z</time>
      </trkpt>
      <trkpt lat="45.7023" lon="4.7003">
        <ele>305</ele>
        <time>2017-06-04T07:13:15Z</time>
      </trkpt>
      <trkpt lat="45.70252" lon="4.70024">
        <ele>305</ele>
        <time>2017-06-04T07:13:23Z</time>
      </trkpt>
      <trkpt lat="45.70266" lon="4.70014">
        <ele>305</ele>
        <time>2017-06-04T07:13:29Z</time>
      </trkpt>
      <trkpt lat="45.70278" lon="4.69999">
        <ele>307</ele>
        <time>2017-06-04T07:13:35Z</time>
      </trkpt>
      <trkpt lat="45.70288" lon="4.69978">
        <ele>307</ele>
        <time>2017-06-04T07:13:42Z</time>
      </trkpt>
      <trkpt lat="45.70305" lon="4.6995">
        <ele>307</ele>
        <time>2017-06-04T07:13:51Z</time>
      </trkpt>
      <trkpt lat="45.70316" lon="4.69933">
        <ele>307</ele>
        <time>2017-06-04T07:13:56Z</time>
      </trkpt>
      <trkpt lat="45.70331" lon="4.69907">
        <ele>308</ele>
        <time>2017-06-04T07:14:03Z</time>
      </trkpt>
      <trkpt lat="45.70337" lon="4.69883">
        <ele>306</ele>
        <time>2017-06-04T07:14:08Z</time>
      </trkpt>
      <trkpt lat="45.70335" lon="4.69838">
        <ele>308</ele>
        <time>2017-06-04T07:14:17Z</time>
      </trkpt>
      <trkpt lat="45.70332" lon="4.69805">
        <ele>310</ele>
        <time>2017-06-04T07:14:25Z</time>
      </trkpt>
      <trkpt lat="45.70345" lon="4.69766">
        <ele>308</ele>
        <time>2017-06-04T07:14:36Z</time>
      </trkpt>
      <trkpt lat="45.7037" lon="4.69773">
        <ele>307</ele>
        <time>2017-06-04T07:14:41Z</time>
      </trkpt>
      <trkpt lat="45.70406" lon="4.69761">
        <ele>306</ele>
        <time>2017-06-04T07:14:48Z</time>
      </trkpt>
      <trkpt lat="45.70418" lon="4.69743">
        <ele>306</ele>
        <time>2017-06-04T07:14:55Z</time>
      </trkpt>
      <trkpt lat="45.70424" lon="4.69732">
        <ele>305</ele>
        <time>2017-06-04T07:15:03Z</time>
      </trkpt>
      <trkpt lat="45.70447" lon="4.69689">
        <ele>304</ele>
        <time>2017-06-04T07:15:15Z</time>
      </trkpt>
      <trkpt lat="45.70469" lon="4.69692">
        <ele>304</ele>
        <time>2017-06-04T07:15:23Z</time>
      </trkpt>
      <trkpt lat="45.70478" lon="4.69717">
        <ele>304</ele>
        <time>2017-06-04T07:15:31Z</time>
      </trkpt>
      <trkpt lat="45.70492" lon="4.69722">
        <ele>304</ele>
        <time>2017-06-04T07:15:38Z</time>
      </trkpt>
      <trkpt lat="45.70513" lon="4.6971">
        <ele>301</ele>
        <time>2017-06-04T07:15:45Z</time>
      </trkpt>
      <trkpt lat="45.70541" lon="4.69696">
        <ele>300</ele>
        <time>2017-06-04T07:15:53Z</time>
      </trkpt>
      <trkpt lat="45.70561" lon="4.69687">
        <ele>299</ele>
        <time>2017-06-04T07:15:59Z</time>
      </trkpt>
      <trkpt lat="45.70572" lon="4.69681">
        <ele>298</ele>
        <time>2017-06-04T07:16:02Z</time>
      </trkpt>
      <trkpt lat="45.70594" lon="4.69667">
        <ele>296</ele>
        <time>2017-06-04T07:16:08Z</time>
      </trkpt>
      <trkpt lat="45.70598" lon="4.69648">
        <ele>296</ele>
        <time>2017-06-04T07:16:16Z</time>
      </trkpt>
      <trkpt lat="45.706" lon="4.69605">
        <ele>296</ele>
        <time>2017-06-04T07:16:32Z</time>
      </trkpt>
      <trkpt lat="45.70601" lon="4.69567">
        <ele>297</ele>
        <time>2017-06-04T07:16:40Z</time>
      </trkpt>
      <trkpt lat="45.70605" lon="4.69543">
        <ele>296</ele>
        <time>2017-06-04T07:16:47Z</time>
      </trkpt>
      <trkpt lat="45.7062" lon="4.6949">
        <ele>296</ele>
        <time>2017-06-04T07:16:55Z</time>
      </trkpt>
      <trkpt lat="45.70631" lon="4.69451">
        <ele>295</ele>
        <time>2017-06-04T07:17:04Z</time>
      </trkpt>
      <trkpt lat="45.70674" lon="4.69322">
        <ele>296</ele>
        <time>2017-06-04T07:17:18Z</time>
      </trkpt>
      <trkpt lat="45.70686" lon="4.69282">
        <ele>297</ele>
        <time>2017-06-04T07:17:23Z</time>
      </trkpt>
      <trkpt lat="45.70693" lon="4.6926">
        <ele>297</ele>
        <time>2017-06-04T07:17:26Z</time>
      </trkpt>
      <trkpt lat="45.70706" lon="4.69221">
        <ele>297</ele>
        <time>2017-06-04T07:17:32Z</time>
      </trkpt>
      <trkpt lat="45.70718" lon="4.69189">
        <ele>297</ele>
        <time>2017-06-04T07:17:37Z</time>
      </trkpt>
      <trkpt lat="45.70729" lon="4.69162">
        <ele>297</ele>
        <time>2017-06-04T07:17:42Z</time>
      </trkpt>
      <trkpt lat="45.70744" lon="4.69134">
        <ele>297</ele>
        <time>2017-06-04T07:17:48Z</time>
      </trkpt>
      <trkpt lat="45.70765" lon="4.69114">
        <ele>298</ele>
        <time>2017-06-04T07:17:54Z</time>
      </trkpt>
      <trkpt lat="45.7078" lon="4.69108">
        <ele>298</ele>
        <time>2017-06-04T07:17:57Z</time>
      </trkpt>
      <trkpt lat="45.7079" lon="4.69092">
        <ele>298</ele>
        <time>2017-06-04T07:18:00Z</time>
      </trkpt>
      <trkpt lat="45.70792" lon="4.69071">
        <ele>299</ele>
        <time>2017-06-04T07:18:03Z</time>
      </trkpt>
      <trkpt lat="45.70776" lon="4.69046">
        <ele>299</ele>
        <time>2017-06-04T07:18:08Z</time>
      </trkpt>
      <trkpt lat="45.70753" lon="4.69028">
        <ele>299</ele>
        <time>2017-06-04T07:18:13Z</time>
      </trkpt>
      <trkpt lat="45.70747" lon="4.69">
        <ele>298</ele>
        <time>2017-06-04T07:18:18Z</time>
      </trkpt>
      <trkpt lat="45.70737" lon="4.68973">
        <ele>299</ele>
        <time>2017-06-04T07:18:25Z</time>
      </trkpt>
      <trkpt lat="45.70731" lon="4.68948">
        <ele>299</ele>
        <time>2017-06-04T07:18:31Z</time>
      </trkpt>
      <trkpt lat="45.70725" lon="4.68928">
        <ele>299</ele>
        <time>2017-06-04T07:18:39Z</time>
      </trkpt>
      <trkpt lat="45.70721" lon="4.68917">
        <ele>299</ele>
        <time>2017-06-04T07:18:56Z</time>
      </trkpt>
      <trkpt lat="45.70709" lon="4.68886">
        <ele>300</ele>
        <time>2017-06-04T07:19:22Z</time>
      </trkpt>
      <trkpt lat="45.70693" lon="4.68847">
        <ele>301</ele>
        <time>2017-06-04T07:19:35Z</time>
      </trkpt>
      <trkpt lat="45.70685" lon="4.68823">
        <ele>302</ele>
        <time>2017-06-04T07:19:46Z</time>
      </trkpt>
      <trkpt lat="45.70669" lon="4.68766">
        <ele>302</ele>
        <time>2017-06-04T07:20:01Z</time>
      </trkpt>
      <trkpt lat="45.70667" lon="4.68752">
        <ele>303</ele>
        <time>2017-06-04T07:20:04Z</time>
      </trkpt>
      <trkpt lat="45.70667" lon="4.68752">
        <ele>303</ele>
        <time>2017-06-04T07:20:10Z</time>
      </trkpt>
      <trkpt lat="45.70667" lon="4.68752">
        <ele>303</ele>
        <time>2017-06-04T07:20:32Z</time>
      </trkpt>
      <trkpt lat="45.70655" lon="4.68722">
        <ele>304</ele>
        <time>2017-06-04T07:20:32Z</time>
      </trkpt>
      <trkpt lat="45.70646" lon="4.68699">
        <ele>304</ele>
        <time>2017-06-04T07:20:40Z</time>
      </trkpt>
      <trkpt lat="45.70634" lon="4.68667">
        <ele>304</ele>
        <time>2017-06-04T07:20:51Z</time>
      </trkpt>
      <trkpt lat="45.70617" lon="4.68635">
        <ele>306</ele>
        <time>2017-06-04T07:21:05Z</time>
      </trkpt>
      <trkpt lat="45.7061" lon="4.68625">
        <ele>306</ele>
        <time>2017-06-04T07:21:11Z</time>
      </trkpt>
      <trkpt lat="45.706" lon="4.68607">
        <ele>307</ele>
        <time>2017-06-04T07:21:19Z</time>
      </trkpt>
      <trkpt lat="45.70604" lon="4.6859">
        <ele>307</ele>
        <time>2017-06-04T07:21:28Z</time>
      </trkpt>
      <trkpt lat="45.70609" lon="4.68577">
        <ele>309</ele>
        <time>2017-06-04T07:21:35Z</time>
      </trkpt>
      <trkpt lat="45.70624" lon="4.68554">
        <ele>309</ele>
        <time>2017-06-04T07:21:45Z</time>
      </trkpt>
      <trkpt lat="45.70634" lon="4.68527">
        <ele>309</ele>
        <time>2017-06-04T07:21:53Z</time>
      </trkpt>
      <trkpt lat="45.70629" lon="4.68503">
        <ele>309</ele>
        <time>2017-06-04T07:22:02Z</time>
      </trkpt>
      <trkpt lat="45.70621" lon="4.68467">
        <ele>310</ele>
        <time>2017-06-04T07:22:12Z</time>
      </trkpt>
      <trkpt lat="45.70617" lon="4.68445">
        <ele>311</ele>
        <time>2017-06-04T07:22:17Z</time>
      </trkpt>
      <trkpt lat="45.70611" lon="4.6842">
        <ele>311</ele>
        <time>2017-06-04T07:22:25Z</time>
      </trkpt>
      <trkpt lat="45.70603" lon="4.68395">
        <ele>312</ele>
        <time>2017-06-04T07:22:34Z</time>
      </trkpt>
      <trkpt lat="45.70596" lon="4.68369">
        <ele>313</ele>
        <time>2017-06-04T07:22:42Z</time>
      </trkpt>
      <trkpt lat="45.70587" lon="4.68348">
        <ele>314</ele>
        <time>2017-06-04T07:22:53Z</time>
      </trkpt>
      <trkpt lat="45.70581" lon="4.68291">
        <ele>318</ele>
        <time>2017-06-04T07:23:07Z</time>
      </trkpt>
      <trkpt lat="45.70576" lon="4.68272">
        <ele>318</ele>
        <time>2017-06-04T07:23:13Z</time>
      </trkpt>
      <trkpt lat="45.70569" lon="4.68255">
        <ele>318</ele>
        <time>2017-06-04T07:23:19Z</time>
      </trkpt>
      <trkpt lat="45.70564" lon="4.68243">
        <ele>321</ele>
        <time>2017-06-04T07:23:26Z</time>
      </trkpt>
      <trkpt lat="45.70549" lon="4.68215">
        <ele>323</ele>
        <time>2017-06-04T07:23:38Z</time>
      </trkpt>
      <trkpt lat="45.70537" lon="4.68196">
        <ele>324</ele>
        <time>2017-06-04T07:23:48Z</time>
      </trkpt>
      <trkpt lat="45.70514" lon="4.68164">
        <ele>329</ele>
        <time>2017-06-04T07:24:03Z</time>
      </trkpt>
      <trkpt lat="45.70501" lon="4.6815">
        <ele>329</ele>
        <time>2017-06-04T07:24:12Z</time>
      </trkpt>
      <trkpt lat="45.70483" lon="4.68118">
        <ele>332</ele>
        <time>2017-06-04T07:24:26Z</time>
      </trkpt>
      <trkpt lat="45.70473" lon="4.68101">
        <ele>333</ele>
        <time>2017-06-04T07:24:34Z</time>
      </trkpt>
      <trkpt lat="45.70462" lon="4.68082">
        <ele>336</ele>
        <time>2017-06-04T07:24:45Z</time>
      </trkpt>
      <trkpt lat="45.70451" lon="4.68061">
        <ele>337</ele>
        <time>2017-06-04T07:24:58Z</time>
      </trkpt>
      <trkpt lat="45.70435" lon="4.68027">
        <ele>339</ele>
        <time>2017-06-04T07:25:13Z</time>
      </trkpt>
      <trkpt lat="45.70417" lon="4.67981">
        <ele>342</ele>
        <time>2017-06-04T07:25:31Z</time>
      </trkpt>
      <trkpt lat="45.70405" lon="4.67963">
        <ele>345</ele>
        <time>2017-06-04T07:25:41Z</time>
      </trkpt>
      <trkpt lat="45.70386" lon="4.67933">
        <ele>346</ele>
        <time>2017-06-04T07:25:53Z</time>
      </trkpt>
      <trkpt lat="45.70375" lon="4.67901">
        <ele>347</ele>
        <time>2017-06-04T07:26:03Z</time>
      </trkpt>
      <trkpt lat="45.70365" lon="4.67871">
        <ele>347</ele>
        <time>2017-06-04T07:26:13Z</time>
      </trkpt>
      <trkpt lat="45.70405" lon="4.67872">
        <ele>346</ele>
        <time>2017-06-04T07:26:24Z</time>
      </trkpt>
      <trkpt lat="45.7043" lon="4.67871">
        <ele>344</ele>
        <time>2017-06-04T07:26:29Z</time>
      </trkpt>
      <trkpt lat="45.70447" lon="4.67871">
        <ele>343</ele>
        <time>2017-06-04T07:26:32Z</time>
      </trkpt>
      <trkpt lat="45.70463" lon="4.6787">
        <ele>343</ele>
        <time>2017-06-04T07:26:35Z</time>
      </trkpt>
      <trkpt lat="45.70479" lon="4.67867">
        <ele>343</ele>
        <time>2017-06-04T07:26:38Z</time>
      </trkpt>
      <trkpt lat="45.70495" lon="4.67831">
        <ele>342</ele>
        <time>2017-06-04T07:26:44Z</time>
      </trkpt>
      <trkpt lat="45.70487" lon="4.67787">
        <ele>344</ele>
        <time>2017-06-04T07:26:50Z</time>
      </trkpt>
      <trkpt lat="45.7048" lon="4.6774">
        <ele>345</ele>
        <time>2017-06-04T07:26:56Z</time>
      </trkpt>
      <trkpt lat="45.70497" lon="4.67698">
        <ele>346</ele>
        <time>2017-06-04T07:27:03Z</time>
      </trkpt>
      <trkpt lat="45.70513" lon="4.67708">
        <ele>347</ele>
        <time>2017-06-04T07:27:10Z</time>
      </trkpt>
      <trkpt lat="45.70533" lon="4.67719">
        <ele>348</ele>
        <time>2017-06-04T07:27:18Z</time>
      </trkpt>
      <trkpt lat="45.70557" lon="4.67734">
        <ele>348</ele>
        <time>2017-06-04T07:27:30Z</time>
      </trkpt>
      <trkpt lat="45.70567" lon="4.67739">
        <ele>348</ele>
        <time>2017-06-04T07:27:38Z</time>
      </trkpt>
      <trkpt lat="45.70587" lon="4.67748">
        <ele>349</ele>
        <time>2017-06-04T07:27:51Z</time>
      </trkpt>
      <trkpt lat="45.70602" lon="4.67758">
        <ele>348</ele>
        <time>2017-06-04T07:28:02Z</time>
      </trkpt>
      <trkpt lat="45.70613" lon="4.67771">
        <ele>348</ele>
        <time>2017-06-04T07:28:08Z</time>
      </trkpt>
      <trkpt lat="45.70629" lon="4.67786">
        <ele>348</ele>
        <time>2017-06-04T07:28:14Z</time>
      </trkpt>
      <trkpt lat="45.70653" lon="4.67812">
        <ele>348</ele>
        <time>2017-06-04T07:28:21Z</time>
      </trkpt>
      <trkpt lat="45.70683" lon="4.67845">
        <ele>345</ele>
        <time>2017-06-04T07:28:26Z</time>
      </trkpt>
      <trkpt lat="45.70717" lon="4.67855">
        <ele>345</ele>
        <time>2017-06-04T07:28:33Z</time>
      </trkpt>
      <trkpt lat="45.70742" lon="4.67862">
        <ele>346</ele>
        <time>2017-06-04T07:28:40Z</time>
      </trkpt>
      <trkpt lat="45.70774" lon="4.67867">
        <ele>346</ele>
        <time>2017-06-04T07:28:48Z</time>
      </trkpt>
      <trkpt lat="45.70796" lon="4.67869">
        <ele>346</ele>
        <time>2017-06-04T07:28:53Z</time>
      </trkpt>
      <trkpt lat="45.7081" lon="4.67868">
        <ele>346</ele>
        <time>2017-06-04T07:28:57Z</time>
      </trkpt>
      <trkpt lat="45.70852" lon="4.67866">
        <ele>346</ele>
        <time>2017-06-04T07:29:06Z</time>
      </trkpt>
      <trkpt lat="45.70879" lon="4.67865">
        <ele>345</ele>
        <time>2017-06-04T07:29:11Z</time>
      </trkpt>
      <trkpt lat="45.70913" lon="4.67876">
        <ele>344</ele>
        <time>2017-06-04T07:29:17Z</time>
      </trkpt>
      <trkpt lat="45.70945" lon="4.6789">
        <ele>344</ele>
        <time>2017-06-04T07:29:22Z</time>
      </trkpt>
      <trkpt lat="45.70967" lon="4.67891">
        <ele>344</ele>
        <time>2017-06-04T07:29:25Z</time>
      </trkpt>
      <trkpt lat="45.71001" lon="4.67884">
        <ele>345</ele>
        <time>2017-06-04T07:29:32Z</time>
      </trkpt>
      <trkpt lat="45.71005" lon="4.67861">
        <ele>346</ele>
        <time>2017-06-04T07:29:39Z</time>
      </trkpt>
      <trkpt lat="45.71004" lon="4.67835">
        <ele>347</ele>
        <time>2017-06-04T07:29:45Z</time>
      </trkpt>
      <trkpt lat="45.71005" lon="4.67813">
        <ele>349</ele>
        <time>2017-06-04T07:29:51Z</time>
      </trkpt>
      <trkpt lat="45.71005" lon="4.67786">
        <ele>351</ele>
        <time>2017-06-04T07:30:00Z</time>
      </trkpt>
      <trkpt lat="45.71007" lon="4.67761">
        <ele>352</ele>
        <time>2017-06-04T07:30:08Z</time>
      </trkpt>
      <trkpt lat="45.71002" lon="4.67744">
        <ele>353</ele>
        <time>2017-06-04T07:30:17Z</time>
      </trkpt>
      <trkpt lat="45.70994" lon="4.67717">
        <ele>356</ele>
        <time>2017-06-04T07:30:22Z</time>
      </trkpt>
      <trkpt lat="45.70989" lon="4.67688">
        <ele>357</ele>
        <time>2017-06-04T07:30:31Z</time>
      </trkpt>
      <trkpt lat="45.70982" lon="4.67655">
        <ele>359</ele>
        <time>2017-06-04T07:30:41Z</time>
      </trkpt>
      <trkpt lat="45.70976" lon="4.67631">
        <ele>360</ele>
        <time>2017-06-04T07:30:50Z</time>
      </trkpt>
      <trkpt lat="45.70973" lon="4.67608">
        <ele>361</ele>
        <time>2017-06-04T07:30:58Z</time>
      </trkpt>
      <trkpt lat="45.7097" lon="4.67592">
        <ele>361</ele>
        <time>2017-06-04T07:31:04Z</time>
      </trkpt>
      <trkpt lat="45.70961" lon="4.67552">
        <ele>364</ele>
        <time>2017-06-04T07:31:18Z</time>
      </trkpt>
      <trkpt lat="45.70956" lon="4.67524">
        <ele>365</ele>
        <time>2017-06-04T07:31:29Z</time>
      </trkpt>
      <trkpt lat="45.70957" lon="4.67509">
        <ele>365</ele>
        <time>2017-06-04T07:31:39Z</time>
      </trkpt>
      <trkpt lat="45.7096" lon="4.67481">
        <ele>366</ele>
        <time>2017-06-04T07:31:45Z</time>
      </trkpt>
      <trkpt lat="45.70962" lon="4.67456">
        <ele>366</ele>
        <time>2017-06-04T07:31:52Z</time>
      </trkpt>
      <trkpt lat="45.70964" lon="4.67433">
        <ele>366</ele>
        <time>2017-06-04T07:31:57Z</time>
      </trkpt>
      <trkpt lat="45.70965" lon="4.67425">
        <ele>366</ele>
        <time>2017-06-04T07:32:01Z</time>
      </trkpt>
      <trkpt lat="45.70965" lon="4.67425">
        <ele>366</ele>
        <time>2017-06-04T07:32:07Z</time>
      </trkpt>
      <trkpt lat="45.70965" lon="4.67425">
        <ele>366</ele>
        <time>2017-06-04T07:32:22Z</time>
      </trkpt>
      <trkpt lat="45.70962" lon="4.67395">
        <ele>366</ele>
        <time>2017-06-04T07:32:22Z</time>
      </trkpt>
      <trkpt lat="45.70957" lon="4.67369">
        <ele>366</ele>
        <time>2017-06-04T07:32:29Z</time>
      </trkpt>
      <trkpt lat="45.70934" lon="4.67321">
        <ele>366</ele>
        <time>2017-06-04T07:32:40Z</time>
      </trkpt>
      <trkpt lat="45.7092" lon="4.67293">
        <ele>366</ele>
        <time>2017-06-04T07:32:47Z</time>
      </trkpt>
      <trkpt lat="45.70911" lon="4.67269">
        <ele>369</ele>
        <time>2017-06-04T07:32:53Z</time>
      </trkpt>
      <trkpt lat="45.70906" lon="4.6724">
        <ele>369</ele>
        <time>2017-06-04T07:33:00Z</time>
      </trkpt>
      <trkpt lat="45.70903" lon="4.67209">
        <ele>370</ele>
        <time>2017-06-04T07:33:08Z</time>
      </trkpt>
      <trkpt lat="45.70902" lon="4.67194">
        <ele>370</ele>
        <time>2017-06-04T07:33:11Z</time>
      </trkpt>
      <trkpt lat="45.70906" lon="4.67177">
        <ele>370</ele>
        <time>2017-06-04T07:33:17Z</time>
      </trkpt>
      <trkpt lat="45.70962" lon="4.67155">
        <ele>369</ele>
        <time>2017-06-04T07:33:27Z</time>
      </trkpt>
      <trkpt lat="45.70976" lon="4.6713">
        <ele>370</ele>
        <time>2017-06-04T07:33:34Z</time>
      </trkpt>
      <trkpt lat="45.70964" lon="4.67105">
        <ele>370</ele>
        <time>2017-06-04T07:33:40Z</time>
      </trkpt>
      <trkpt lat="45.70953" lon="4.6708">
        <ele>374</ele>
        <time>2017-06-04T07:33:49Z</time>
      </trkpt>
      <trkpt lat="45.70943" lon="4.67059">
        <ele>374</ele>
        <time>2017-06-04T07:33:57Z</time>
      </trkpt>
      <trkpt lat="45.70933" lon="4.67036">
        <ele>375</ele>
        <time>2017-06-04T07:34:05Z</time>
      </trkpt>
      <trkpt lat="45.70924" lon="4.67019">
        <ele>377</ele>
        <time>2017-06-04T07:34:13Z</time>
      </trkpt>
      <trkpt lat="45.70917" lon="4.66983">
        <ele>379</ele>
        <time>2017-06-04T07:34:23Z</time>
      </trkpt>
      <trkpt lat="45.70913" lon="4.66968">
        <ele>382</ele>
        <time>2017-06-04T07:34:28Z</time>
      </trkpt>
      <trkpt lat="45.70907" lon="4.66945">
        <ele>383</ele>
        <time>2017-06-04T07:34:37Z</time>
      </trkpt>
      <trkpt lat="45.70902" lon="4.6691">
        <ele>386</ele>
        <time>2017-06-04T07:34:53Z</time>
      </trkpt>
      <trkpt lat="45.70889" lon="4.66864">
        <ele>390</ele>
        <time>2017-06-04T07:35:09Z</time>
      </trkpt>
      <trkpt lat="45.70856" lon="4.66822">
        <ele>398</ele>
        <time>2017-06-04T07:35:29Z</time>
      </trkpt>
      <trkpt lat="45.70839" lon="4.66812">
        <ele>398</ele>
        <time>2017-06-04T07:35:38Z</time>
      </trkpt>
      <trkpt lat="45.70826" lon="4.66803">
        <ele>399</ele>
        <time>2017-06-04T07:35:46Z</time>
      </trkpt>
      <trkpt lat="45.70818" lon="4.66796">
        <ele>400</ele>
        <time>2017-06-04T07:35:57Z</time>
      </trkpt>
      <trkpt lat="45.70818" lon="4.66796">
        <ele>400</ele>
        <time>2017-06-04T07:38:42Z</time>
      </trkpt>
      <trkpt lat="45.7083" lon="4.66785">
        <ele>401</ele>
        <time>2017-06-04T07:42:13Z</time>
      </trkpt>
      <trkpt lat="45.70843" lon="4.66779">
        <ele>401</ele>
        <time>2017-06-04T07:42:24Z</time>
      </trkpt>
      <trkpt lat="45.70868" lon="4.66759">
        <ele>401</ele>
        <time>2017-06-04T07:42:37Z</time>
      </trkpt>
      <trkpt lat="45.70883" lon="4.66746">
        <ele>405</ele>
        <time>2017-06-04T07:42:43Z</time>
      </trkpt>
      <trkpt lat="45.70904" lon="4.66731">
        <ele>405</ele>
        <time>2017-06-04T07:42:49Z</time>
      </trkpt>
      <trkpt lat="45.70924" lon="4.6672">
        <ele>403</ele>
        <time>2017-06-04T07:42:56Z</time>
      </trkpt>
      <trkpt lat="45.70943" lon="4.66706">
        <ele>403</ele>
        <time>2017-06-04T07:43:04Z</time>
      </trkpt>
      <trkpt lat="45.70952" lon="4.66701">
        <ele>404</ele>
        <time>2017-06-04T07:43:09Z</time>
      </trkpt>
      <trkpt lat="45.70984" lon="4.66674">
        <ele>405</ele>
        <time>2017-06-04T07:43:22Z</time>
      </trkpt>
      <trkpt lat="45.71027" lon="4.66667">
        <ele>410</ele>
        <time>2017-06-04T07:43:35Z</time>
      </trkpt>
      <trkpt lat="45.71042" lon="4.66652">
        <ele>412</ele>
        <time>2017-06-04T07:43:43Z</time>
      </trkpt>
      <trkpt lat="45.7106" lon="4.66649">
        <ele>412</ele>
        <time>2017-06-04T07:43:51Z</time>
      </trkpt>
      <trkpt lat="45.71081" lon="4.66652">
        <ele>411</ele>
        <time>2017-06-04T07:43:59Z</time>
      </trkpt>
      <trkpt lat="45.71098" lon="4.66653">
        <ele>413</ele>
        <time>2017-06-04T07:44:06Z</time>
      </trkpt>
      <trkpt lat="45.71118" lon="4.66652">
        <ele>414</ele>
        <time>2017-06-04T07:44:14Z</time>
      </trkpt>
      <trkpt lat="45.71139" lon="4.66649">
        <ele>415</ele>
        <time>2017-06-04T07:44:25Z</time>
      </trkpt>
      <trkpt lat="45.71182" lon="4.66632">
        <ele>416</ele>
        <time>2017-06-04T07:44:39Z</time>
      </trkpt>
      <trkpt lat="45.71206" lon="4.66619">
        <ele>416</ele>
        <time>2017-06-04T07:44:48Z</time>
      </trkpt>
      <trkpt lat="45.71219" lon="4.6661">
        <ele>416</ele>
        <time>2017-06-04T07:44:54Z</time>
      </trkpt>
      <trkpt lat="45.71234" lon="4.66598">
        <ele>417</ele>
        <time>2017-06-04T07:45:01Z</time>
      </trkpt>
      <trkpt lat="45.71265" lon="4.66584">
        <ele>417</ele>
        <time>2017-06-04T07:45:13Z</time>
      </trkpt>
      <trkpt lat="45.71289" lon="4.6658">
        <ele>423</ele>
        <time>2017-06-04T07:45:20Z</time>
      </trkpt>
      <trkpt lat="45.71336" lon="4.66569">
        <ele>422</ele>
        <time>2017-06-04T07:45:30Z</time>
      </trkpt>
      <trkpt lat="45.71358" lon="4.66566">
        <ele>423</ele>
        <time>2017-06-04T07:45:37Z</time>
      </trkpt>
      <trkpt lat="45.71384" lon="4.66562">
        <ele>423</ele>
        <time>2017-06-04T07:45:42Z</time>
      </trkpt>
      <trkpt lat="45.71409" lon="4.66545">
        <ele>423</ele>
        <time>2017-06-04T07:45:49Z</time>
      </trkpt>
      <trkpt lat="45.71433" lon="4.66526">
        <ele>421</ele>
        <time>2017-06-04T07:45:55Z</time>
      </trkpt>
      <trkpt lat="45.71459" lon="4.66514">
        <ele>420</ele>
        <time>2017-06-04T07:46:02Z</time>
      </trkpt>
      <trkpt lat="45.71481" lon="4.665">
        <ele>420</ele>
        <time>2017-06-04T07:46:10Z</time>
      </trkpt>
      <trkpt lat="45.71523" lon="4.6646">
        <ele>425</ele>
        <time>2017-06-04T07:46:26Z</time>
      </trkpt>
      <trkpt lat="45.7154" lon="4.66444">
        <ele>425</ele>
        <time>2017-06-04T07:46:35Z</time>
      </trkpt>
      <trkpt lat="45.7156" lon="4.66425">
        <ele>425</ele>
        <time>2017-06-04T07:46:44Z</time>
      </trkpt>
      <trkpt lat="45.71568" lon="4.66413">
        <ele>430</ele>
        <time>2017-06-04T07:46:50Z</time>
      </trkpt>
      <trkpt lat="45.71577" lon="4.66397">
        <ele>431</ele>
        <time>2017-06-04T07:46:56Z</time>
      </trkpt>
      <trkpt lat="45.71583" lon="4.66387">
        <ele>433</ele>
        <time>2017-06-04T07:47:01Z</time>
      </trkpt>
      <trkpt lat="45.71601" lon="4.66356">
        <ele>431</ele>
        <time>2017-06-04T07:47:14Z</time>
      </trkpt>
      <trkpt lat="45.71609" lon="4.66343">
        <ele>431</ele>
        <time>2017-06-04T07:47:20Z</time>
      </trkpt>
      <trkpt lat="45.71621" lon="4.66316">
        <ele>436</ele>
        <time>2017-06-04T07:47:30Z</time>
      </trkpt>
      <trkpt lat="45.71639" lon="4.66278">
        <ele>437</ele>
        <time>2017-06-04T07:47:44Z</time>
      </trkpt>
      <trkpt lat="45.71653" lon="4.66226">
        <ele>440</ele>
        <time>2017-06-04T07:47:56Z</time>
      </trkpt>
      <trkpt lat="45.71655" lon="4.66198">
        <ele>440</ele>
        <time>2017-06-04T07:48:03Z</time>
      </trkpt>
      <trkpt lat="45.71638" lon="4.66171">
        <ele>441</ele>
        <time>2017-06-04T07:48:14Z</time>
      </trkpt>
      <trkpt lat="45.71629" lon="4.66157">
        <ele>442</ele>
        <time>2017-06-04T07:48:22Z</time>
      </trkpt>
      <trkpt lat="45.71616" lon="4.66139">
        <ele>443</ele>
        <time>2017-06-04T07:48:32Z</time>
      </trkpt>
      <trkpt lat="45.71593" lon="4.66103">
        <ele>444</ele>
        <time>2017-06-04T07:48:47Z</time>
      </trkpt>
      <trkpt lat="45.71587" lon="4.6609">
        <ele>446</ele>
        <time>2017-06-04T07:48:55Z</time>
      </trkpt>
      <trkpt lat="45.71562" lon="4.66055">
        <ele>454</ele>
        <time>2017-06-04T07:49:15Z</time>
      </trkpt>
      <trkpt lat="45.71549" lon="4.66044">
        <ele>455</ele>
        <time>2017-06-04T07:49:30Z</time>
      </trkpt>
      <trkpt lat="45.71526" lon="4.66026">
        <ele>457</ele>
        <time>2017-06-04T07:49:39Z</time>
      </trkpt>
      <trkpt lat="45.7151" lon="4.66011">
        <ele>459</ele>
        <time>2017-06-04T07:49:51Z</time>
      </trkpt>
      <trkpt lat="45.71496" lon="4.65996">
        <ele>463</ele>
        <time>2017-06-04T07:50:01Z</time>
      </trkpt>
      <trkpt lat="45.71482" lon="4.6598">
        <ele>466</ele>
        <time>2017-06-04T07:50:14Z</time>
      </trkpt>
      <trkpt lat="45.71464" lon="4.65965">
        <ele>468</ele>
        <time>2017-06-04T07:50:26Z</time>
      </trkpt>
      <trkpt lat="45.71456" lon="4.65957">
        <ele>469</ele>
        <time>2017-06-04T07:50:32Z</time>
      </trkpt>
      <trkpt lat="45.71447" lon="4.65951">
        <ele>470</ele>
        <time>2017-06-04T07:50:38Z</time>
      </trkpt>
      <trkpt lat="45.71431" lon="4.65939">
        <ele>472</ele>
        <time>2017-06-04T07:50:50Z</time>
      </trkpt>
      <trkpt lat="45.71419" lon="4.6593">
        <ele>473</ele>
        <time>2017-06-04T07:50:58Z</time>
      </trkpt>
      <trkpt lat="45.71409" lon="4.65922">
        <ele>479</ele>
        <time>2017-06-04T07:51:05Z</time>
      </trkpt>
      <trkpt lat="45.7139" lon="4.65908">
        <ele>482</ele>
        <time>2017-06-04T07:51:19Z</time>
      </trkpt>
      <trkpt lat="45.71373" lon="4.65892">
        <ele>484</ele>
        <time>2017-06-04T07:51:33Z</time>
      </trkpt>
      <trkpt lat="45.71355" lon="4.65876">
        <ele>486</ele>
        <time>2017-06-04T07:51:46Z</time>
      </trkpt>
      <trkpt lat="45.71351" lon="4.65857">
        <ele>487</ele>
        <time>2017-06-04T07:52:00Z</time>
      </trkpt>
      <trkpt lat="45.71351" lon="4.65796">
        <ele>487</ele>
        <time>2017-06-04T07:52:16Z</time>
      </trkpt>
      <trkpt lat="45.71347" lon="4.65767">
        <ele>490</ele>
        <time>2017-06-04T07:52:24Z</time>
      </trkpt>
      <trkpt lat="45.71359" lon="4.65723">
        <ele>485</ele>
        <time>2017-06-04T07:52:31Z</time>
      </trkpt>
      <trkpt lat="45.71363" lon="4.65676">
        <ele>483</ele>
        <time>2017-06-04T07:52:37Z</time>
      </trkpt>
      <trkpt lat="45.71381" lon="4.6562">
        <ele>473</ele>
        <time>2017-06-04T07:52:42Z</time>
      </trkpt>
      <trkpt lat="45.71387" lon="4.65576">
        <ele>467</ele>
        <time>2017-06-04T07:52:48Z</time>
      </trkpt>
      <trkpt lat="45.71386" lon="4.65541">
        <ele>468</ele>
        <time>2017-06-04T07:52:53Z</time>
      </trkpt>
      <trkpt lat="45.71416" lon="4.65513">
        <ele>460</ele>
        <time>2017-06-04T07:52:59Z</time>
      </trkpt>
      <trkpt lat="45.71435" lon="4.65501">
        <ele>448</ele>
        <time>2017-06-04T07:53:07Z</time>
      </trkpt>
      <trkpt lat="45.71437" lon="4.65477">
        <ele>446</ele>
        <time>2017-06-04T07:53:28Z</time>
      </trkpt>
      <trkpt lat="45.71432" lon="4.65444">
        <ele>447</ele>
        <time>2017-06-04T07:53:40Z</time>
      </trkpt>
      <trkpt lat="45.71424" lon="4.6543">
        <ele>449</ele>
        <time>2017-06-04T07:53:45Z</time>
      </trkpt>
      <trkpt lat="45.71424" lon="4.6543">
        <ele>449</ele>
        <time>2017-06-04T07:54:11Z</time>
      </trkpt>
      <trkpt lat="45.71424" lon="4.6543">
        <ele>449</ele>
        <time>2017-06-04T07:54:14Z</time>
      </trkpt>
      <trkpt lat="45.71367" lon="4.65341">
        <ele>470</ele>
        <time>2017-06-04T07:54:23Z</time>
      </trkpt>
      <trkpt lat="45.71386" lon="4.65309">
        <ele>470</ele>
        <time>2017-06-04T07:54:29Z</time>
      </trkpt>
      <trkpt lat="45.71394" lon="4.65284">
        <ele>471</ele>
        <time>2017-06-04T07:54:35Z</time>
      </trkpt>
      <trkpt lat="45.71401" lon="4.65254">
        <ele>470</ele>
        <time>2017-06-04T07:54:43Z</time>
      </trkpt>
      <trkpt lat="45.71418" lon="4.65176">
        <ele>470</ele>
        <time>2017-06-04T07:54:58Z</time>
      </trkpt>
      <trkpt lat="45.71437" lon="4.65143">
        <ele>476</ele>
        <time>2017-06-04T07:55:05Z</time>
      </trkpt>
      <trkpt lat="45.71473" lon="4.65148">
        <ele>469</ele>
        <time>2017-06-04T07:55:10Z</time>
      </trkpt>
      <trkpt lat="45.71542" lon="4.65119">
        <ele>452</ele>
        <time>2017-06-04T07:55:19Z</time>
      </trkpt>
      <trkpt lat="45.71562" lon="4.65078">
        <ele>460</ele>
        <time>2017-06-04T07:55:25Z</time>
      </trkpt>
      <trkpt lat="45.71594" lon="4.65052">
        <ele>445</ele>
        <time>2017-06-04T07:55:29Z</time>
      </trkpt>
      <trkpt lat="45.71649" lon="4.6499">
        <ele>442</ele>
        <time>2017-06-04T07:55:35Z</time>
      </trkpt>
      <trkpt lat="45.71653" lon="4.64924">
        <ele>442</ele>
        <time>2017-06-04T07:55:41Z</time>
      </trkpt>
      <trkpt lat="45.71645" lon="4.64889">
        <ele>445</ele>
        <time>2017-06-04T07:55:45Z</time>
      </trkpt>
      <trkpt lat="45.71636" lon="4.64852">
        <ele>446</ele>
        <time>2017-06-04T07:55:50Z</time>
      </trkpt>
      <trkpt lat="45.71631" lon="4.64809">
        <ele>442</ele>
        <time>2017-06-04T07:55:56Z</time>
      </trkpt>
      <trkpt lat="45.71609" lon="4.64751">
        <ele>443</ele>
        <time>2017-06-04T07:56:02Z</time>
      </trkpt>
      <trkpt lat="45.71575" lon="4.64693">
        <ele>449</ele>
        <time>2017-06-04T07:56:10Z</time>
      </trkpt>
      <trkpt lat="45.71564" lon="4.6464">
        <ele>444</ele>
        <time>2017-06-04T07:56:15Z</time>
      </trkpt>
      <trkpt lat="45.71552" lon="4.64613">
        <ele>445</ele>
        <time>2017-06-04T07:56:18Z</time>
      </trkpt>
      <trkpt lat="45.71533" lon="4.64568">
        <ele>449</ele>
        <time>2017-06-04T07:56:23Z</time>
      </trkpt>
      <trkpt lat="45.71556" lon="4.64531">
        <ele>450</ele>
        <time>2017-06-04T07:56:29Z</time>
      </trkpt>
      <trkpt lat="45.71576" lon="4.64513">
        <ele>451</ele>
        <time>2017-06-04T07:56:39Z</time>
      </trkpt>
      <trkpt lat="45.71589" lon="4.64515">
        <ele>447</ele>
        <time>2017-06-04T07:56:49Z</time>
      </trkpt>
      <trkpt lat="45.71609" lon="4.64526">
        <ele>444</ele>
        <time>2017-06-04T07:56:59Z</time>
      </trkpt>
      <trkpt lat="45.71623" lon="4.64523">
        <ele>443</ele>
        <time>2017-06-04T07:57:12Z</time>
      </trkpt>
      <trkpt lat="45.71652" lon="4.64515">
        <ele>444</ele>
        <time>2017-06-04T07:57:31Z</time>
      </trkpt>
      <trkpt lat="45.71656" lon="4.64511">
        <ele>444</ele>
        <time>2017-06-04T07:57:34Z</time>
      </trkpt>
      <trkpt lat="45.71656" lon="4.64511">
        <ele>444</ele>
        <time>2017-06-04T07:57:40Z</time>
      </trkpt>
      <trkpt lat="45.71656" lon="4.64511">
        <ele>444</ele>
        <time>2017-06-04T07:57:42Z</time>
      </trkpt>
      <trkpt lat="45.71673" lon="4.64489">
        <ele>444</ele>
        <time>2017-06-04T07:57:47Z</time>
      </trkpt>
      <trkpt lat="45.71684" lon="4.6447">
        <ele>442</ele>
        <time>2017-06-04T07:57:52Z</time>
      </trkpt>
      <trkpt lat="45.71695" lon="4.64442">
        <ele>442</ele>
        <time>2017-06-04T07:58:00Z</time>
      </trkpt>
      <trkpt lat="45.71716" lon="4.64375">
        <ele>440</ele>
        <time>2017-06-04T07:58:09Z</time>
      </trkpt>
      <trkpt lat="45.71708" lon="4.64304">
        <ele>435</ele>
        <time>2017-06-04T07:58:16Z</time>
      </trkpt>
      <trkpt lat="45.71699" lon="4.64255">
        <ele>435</ele>
        <time>2017-06-04T07:58:22Z</time>
      </trkpt>
      <trkpt lat="45.7168" lon="4.64164">
        <ele>423</ele>
        <time>2017-06-04T07:58:30Z</time>
      </trkpt>
      <trkpt lat="45.71674" lon="4.641">
        <ele>416</ele>
        <time>2017-06-04T07:58:41Z</time>
      </trkpt>
      <trkpt lat="45.71675" lon="4.64023">
        <ele>411</ele>
        <time>2017-06-04T07:58:49Z</time>
      </trkpt>
      <trkpt lat="45.71704" lon="4.63983">
        <ele>406</ele>
        <time>2017-06-04T07:58:55Z</time>
      </trkpt>
      <trkpt lat="45.71723" lon="4.63964">
        <ele>403</ele>
        <time>2017-06-04T07:59:00Z</time>
      </trkpt>
      <trkpt lat="45.71735" lon="4.63916">
        <ele>400</ele>
        <time>2017-06-04T07:59:07Z</time>
      </trkpt>
      <trkpt lat="45.71737" lon="4.6387">
        <ele>401</ele>
        <time>2017-06-04T07:59:13Z</time>
      </trkpt>
      <trkpt lat="45.71732" lon="4.63816">
        <ele>397</ele>
        <time>2017-06-04T07:59:20Z</time>
      </trkpt>
      <trkpt lat="45.71724" lon="4.63779">
        <ele>397</ele>
        <time>2017-06-04T07:59:26Z</time>
      </trkpt>
      <trkpt lat="45.71718" lon="4.63755">
        <ele>396</ele>
        <time>2017-06-04T07:59:31Z</time>
      </trkpt>
      <trkpt lat="45.71722" lon="4.63716">
        <ele>394</ele>
        <time>2017-06-04T07:59:39Z</time>
      </trkpt>
      <trkpt lat="45.71745" lon="4.63755">
        <ele>391</ele>
        <time>2017-06-04T07:59:49Z</time>
      </trkpt>
      <trkpt lat="45.71759" lon="4.63782">
        <ele>387</ele>
        <time>2017-06-04T07:59:54Z</time>
      </trkpt>
      <trkpt lat="45.71772" lon="4.63845">
        <ele>388</ele>
        <time>2017-06-04T08:00:01Z</time>
      </trkpt>
      <trkpt lat="45.71795" lon="4.63903">
        <ele>385</ele>
        <time>2017-06-04T08:00:08Z</time>
      </trkpt>
      <trkpt lat="45.7182" lon="4.63952">
        <ele>381</ele>
        <time>2017-06-04T08:00:14Z</time>
      </trkpt>
      <trkpt lat="45.71827" lon="4.63975">
        <ele>380</ele>
        <time>2017-06-04T08:00:19Z</time>
      </trkpt>
      <trkpt lat="45.71845" lon="4.63965">
        <ele>375</ele>
        <time>2017-06-04T08:00:27Z</time>
      </trkpt>
      <trkpt lat="45.71868" lon="4.63956">
        <ele>375</ele>
        <time>2017-06-04T08:00:33Z</time>
      </trkpt>
      <trkpt lat="45.71889" lon="4.63945">
        <ele>375</ele>
        <time>2017-06-04T08:00:40Z</time>
      </trkpt>
      <trkpt lat="45.71875" lon="4.6391">
        <ele>380</ele>
        <time>2017-06-04T08:00:49Z</time>
      </trkpt>
      <trkpt lat="45.7186" lon="4.63885">
        <ele>381</ele>
        <time>2017-06-04T08:00:54Z</time>
      </trkpt>
      <trkpt lat="45.7185" lon="4.63863">
        <ele>381</ele>
        <time>2017-06-04T08:01:00Z</time>
      </trkpt>
      <trkpt lat="45.71841" lon="4.63834">
        <ele>380</ele>
        <time>2017-06-04T08:01:06Z</time>
      </trkpt>
      <trkpt lat="45.71838" lon="4.63804">
        <ele>386</ele>
        <time>2017-06-04T08:01:12Z</time>
      </trkpt>
      <trkpt lat="45.71835" lon="4.63768">
        <ele>386</ele>
        <time>2017-06-04T08:01:19Z</time>
      </trkpt>
      <trkpt lat="45.7183" lon="4.6373">
        <ele>384</ele>
        <time>2017-06-04T08:01:26Z</time>
      </trkpt>
      <trkpt lat="45.71833" lon="4.63704">
        <ele>385</ele>
        <time>2017-06-04T08:01:32Z</time>
      </trkpt>
      <trkpt lat="45.71831" lon="4.63665">
        <ele>384</ele>
        <time>2017-06-04T08:01:40Z</time>
      </trkpt>
      <trkpt lat="45.71827" lon="4.63626">
        <ele>386</ele>
        <time>2017-06-04T08:01:46Z</time>
      </trkpt>
      <trkpt lat="45.71821" lon="4.6359">
        <ele>387</ele>
        <time>2017-06-04T08:01:51Z</time>
      </trkpt>
      <trkpt lat="45.71816" lon="4.63567">
        <ele>388</ele>
        <time>2017-06-04T08:01:55Z</time>
      </trkpt>
      <trkpt lat="45.71809" lon="4.63546">
        <ele>388</ele>
        <time>2017-06-04T08:01:59Z</time>
      </trkpt>
      <trkpt lat="45.718" lon="4.63522">
        <ele>389</ele>
        <time>2017-06-04T08:02:04Z</time>
      </trkpt>
      <trkpt lat="45.71791" lon="4.63474">
        <ele>390</ele>
        <time>2017-06-04T08:02:11Z</time>
      </trkpt>
      <trkpt lat="45.71787" lon="4.63442">
        <ele>391</ele>
        <time>2017-06-04T08:02:17Z</time>
      </trkpt>
      <trkpt lat="45.71791" lon="4.63395">
        <ele>392</ele>
        <time>2017-06-04T08:02:24Z</time>
      </trkpt>
      <trkpt lat="45.71796" lon="4.63366">
        <ele>392</ele>
        <time>2017-06-04T08:02:29Z</time>
      </trkpt>
      <trkpt lat="45.71798" lon="4.63297">
        <ele>393</ele>
        <time>2017-06-04T08:02:37Z</time>
      </trkpt>
      <trkpt lat="45.71799" lon="4.63256">
        <ele>394</ele>
        <time>2017-06-04T08:02:44Z</time>
      </trkpt>
      <trkpt lat="45.71799" lon="4.63223">
        <ele>395</ele>
        <time>2017-06-04T08:02:50Z</time>
      </trkpt>
      <trkpt lat="45.71788" lon="4.63197">
        <ele>395</ele>
        <time>2017-06-04T08:02:56Z</time>
      </trkpt>
      <trkpt lat="45.71774" lon="4.63162">
        <ele>395</ele>
        <time>2017-06-04T08:03:04Z</time>
      </trkpt>
      <trkpt lat="45.71768" lon="4.63143">
        <ele>395</ele>
        <time>2017-06-04T08:03:10Z</time>
      </trkpt>
      <trkpt lat="45.71758" lon="4.63154">
        <ele>394</ele>
        <time>2017-06-04T08:03:18Z</time>
      </trkpt>
      <trkpt lat="45.71755" lon="4.63175">
        <ele>393</ele>
        <time>2017-06-04T08:03:28Z</time>
      </trkpt>
      <trkpt lat="45.71739" lon="4.63178">
        <ele>395</ele>
        <time>2017-06-04T08:03:42Z</time>
      </trkpt>
      <trkpt lat="45.7173" lon="4.63174">
        <ele>396</ele>
        <time>2017-06-04T08:03:51Z</time>
      </trkpt>
      <trkpt lat="45.7173" lon="4.63174">
        <ele>396</ele>
        <time>2017-06-04T08:03:59Z</time>
      </trkpt>
      <trkpt lat="45.7173" lon="4.63174">
        <ele>396</ele>
        <time>2017-06-04T08:04:05Z</time>
      </trkpt>
      <trkpt lat="45.71721" lon="4.63171">
        <ele>397</ele>
        <time>2017-06-04T08:04:05Z</time>
      </trkpt>
      <trkpt lat="45.71708" lon="4.63168">
        <ele>398</ele>
        <time>2017-06-04T08:04:14Z</time>
      </trkpt>
      <trkpt lat="45.71694" lon="4.63167">
        <ele>400</ele>
        <time>2017-06-04T08:04:22Z</time>
      </trkpt>
      <trkpt lat="45.71677" lon="4.6317">
        <ele>404</ele>
        <time>2017-06-04T08:04:32Z</time>
      </trkpt>
      <trkpt lat="45.71657" lon="4.63167">
        <ele>409</ele>
        <time>2017-06-04T08:04:42Z</time>
      </trkpt>
      <trkpt lat="45.71645" lon="4.63166">
        <ele>411</ele>
        <time>2017-06-04T08:04:49Z</time>
      </trkpt>
      <trkpt lat="45.71632" lon="4.63164">
        <ele>413</ele>
        <time>2017-06-04T08:04:58Z</time>
      </trkpt>
      <trkpt lat="45.71607" lon="4.63157">
        <ele>414</ele>
        <time>2017-06-04T08:05:12Z</time>
      </trkpt>
      <trkpt lat="45.71595" lon="4.63145">
        <ele>415</ele>
        <time>2017-06-04T08:05:22Z</time>
      </trkpt>
      <trkpt lat="45.71577" lon="4.63128">
        <ele>421</ele>
        <time>2017-06-04T08:05:37Z</time>
      </trkpt>
      <trkpt lat="45.71554" lon="4.63103">
        <ele>422</ele>
        <time>2017-06-04T08:05:52Z</time>
      </trkpt>
      <trkpt lat="45.71541" lon="4.63091">
        <ele>423</ele>
        <time>2017-06-04T08:05:59Z</time>
      </trkpt>
      <trkpt lat="45.71526" lon="4.6308">
        <ele>429</ele>
        <time>2017-06-04T08:06:09Z</time>
      </trkpt>
      <trkpt lat="45.71523" lon="4.63078">
        <ele>429</ele>
        <time>2017-06-04T08:06:12Z</time>
      </trkpt>
      <trkpt lat="45.71523" lon="4.63078">
        <ele>429</ele>
        <time>2017-06-04T08:06:21Z</time>
      </trkpt>
      <trkpt lat="45.71523" lon="4.63078">
        <ele>429</ele>
        <time>2017-06-04T08:06:31Z</time>
      </trkpt>
      <trkpt lat="45.71538" lon="4.63067">
        <ele>430</ele>
        <time>2017-06-04T08:06:31Z</time>
      </trkpt>
      <trkpt lat="45.71558" lon="4.63065">
        <ele>430</ele>
        <time>2017-06-04T08:06:45Z</time>
      </trkpt>
      <trkpt lat="45.71569" lon="4.63066">
        <ele>429</ele>
        <time>2017-06-04T08:06:54Z</time>
      </trkpt>
      <trkpt lat="45.71587" lon="4.63064">
        <ele>424</ele>
        <time>2017-06-04T08:07:06Z</time>
      </trkpt>
      <trkpt lat="45.71581" lon="4.63044">
        <ele>431</ele>
        <time>2017-06-04T08:07:20Z</time>
      </trkpt>
      <trkpt lat="45.71573" lon="4.63027">
        <ele>433</ele>
        <time>2017-06-04T08:07:29Z</time>
      </trkpt>
      <trkpt lat="45.7156" lon="4.63012">
        <ele>434</ele>
        <time>2017-06-04T08:07:43Z</time>
      </trkpt>
      <trkpt lat="45.71551" lon="4.63003">
        <ele>434</ele>
        <time>2017-06-04T08:07:52Z</time>
      </trkpt>
      <trkpt lat="45.71529" lon="4.62981">
        <ele>443</ele>
        <time>2017-06-04T08:08:10Z</time>
      </trkpt>
      <trkpt lat="45.71512" lon="4.62966">
        <ele>444</ele>
        <time>2017-06-04T08:08:23Z</time>
      </trkpt>
      <trkpt lat="45.71497" lon="4.62959">
        <ele>448</ele>
        <time>2017-06-04T08:08:34Z</time>
      </trkpt>
      <trkpt lat="45.71482" lon="4.62951">
        <ele>449</ele>
        <time>2017-06-04T08:08:43Z</time>
      </trkpt>
      <trkpt lat="45.71401" lon="4.6296">
        <ele>456</ele>
        <time>2017-06-04T08:09:00Z</time>
      </trkpt>
      <trkpt lat="45.71387" lon="4.62971">
        <ele>457</ele>
        <time>2017-06-04T08:09:06Z</time>
      </trkpt>
      <trkpt lat="45.71344" lon="4.63042">
        <ele>447</ele>
        <time>2017-06-04T08:09:20Z</time>
      </trkpt>
      <trkpt lat="45.71327" lon="4.63048">
        <ele>457</ele>
        <time>2017-06-04T08:09:29Z</time>
      </trkpt>
      <trkpt lat="45.71309" lon="4.63052">
        <ele>457</ele>
        <time>2017-06-04T08:09:39Z</time>
      </trkpt>
      <trkpt lat="45.71291" lon="4.63052">
        <ele>459</ele>
        <time>2017-06-04T08:09:47Z</time>
      </trkpt>
      <trkpt lat="45.71275" lon="4.63046">
        <ele>460</ele>
        <time>2017-06-04T08:09:54Z</time>
      </trkpt>
      <trkpt lat="45.71255" lon="4.63039">
        <ele>462</ele>
        <time>2017-06-04T08:10:03Z</time>
      </trkpt>
      <trkpt lat="45.71227" lon="4.63033">
        <ele>466</ele>
        <time>2017-06-04T08:10:14Z</time>
      </trkpt>
      <trkpt lat="45.71198" lon="4.63022">
        <ele>467</ele>
        <time>2017-06-04T08:10:23Z</time>
      </trkpt>
      <trkpt lat="45.71175" lon="4.63018">
        <ele>468</ele>
        <time>2017-06-04T08:10:32Z</time>
      </trkpt>
      <trkpt lat="45.71157" lon="4.63015">
        <ele>469</ele>
        <time>2017-06-04T08:10:39Z</time>
      </trkpt>
      <trkpt lat="45.71144" lon="4.63009">
        <ele>469</ele>
        <time>2017-06-04T08:10:45Z</time>
      </trkpt>
      <trkpt lat="45.71132" lon="4.63005">
        <ele>468</ele>
        <time>2017-06-04T08:10:51Z</time>
      </trkpt>
      <trkpt lat="45.71117" lon="4.62994">
        <ele>481</ele>
        <time>2017-06-04T08:11:00Z</time>
      </trkpt>
      <trkpt lat="45.71097" lon="4.62981">
        <ele>481</ele>
        <time>2017-06-04T08:11:12Z</time>
      </trkpt>
      <trkpt lat="45.71079" lon="4.6297">
        <ele>486</ele>
        <time>2017-06-04T08:11:22Z</time>
      </trkpt>
      <trkpt lat="45.71064" lon="4.62959">
        <ele>489</ele>
        <time>2017-06-04T08:11:30Z</time>
      </trkpt>
      <trkpt lat="45.71051" lon="4.62952">
        <ele>491</ele>
        <time>2017-06-04T08:11:37Z</time>
      </trkpt>
      <trkpt lat="45.7104" lon="4.62943">
        <ele>492</ele>
        <time>2017-06-04T08:11:43Z</time>
      </trkpt>
      <trkpt lat="45.71025" lon="4.62926">
        <ele>493</ele>
        <time>2017-06-04T08:11:52Z</time>
      </trkpt>
      <trkpt lat="45.71007" lon="4.62917">
        <ele>495</ele>
        <time>2017-06-04T08:12:00Z</time>
      </trkpt>
      <trkpt lat="45.71002" lon="4.62952">
        <ele>493</ele>
        <time>2017-06-04T08:12:11Z</time>
      </trkpt>
      <trkpt lat="45.71001" lon="4.62979">
        <ele>492</ele>
        <time>2017-06-04T08:12:18Z</time>
      </trkpt>
      <trkpt lat="45.70995" lon="4.63014">
        <ele>502</ele>
        <time>2017-06-04T08:12:27Z</time>
      </trkpt>
      <trkpt lat="45.70998" lon="4.63033">
        <ele>505</ele>
        <time>2017-06-04T08:12:32Z</time>
      </trkpt>
      <trkpt lat="45.71001" lon="4.63052">
        <ele>487</ele>
        <time>2017-06-04T08:12:38Z</time>
      </trkpt>
      <trkpt lat="45.71" lon="4.63078">
        <ele>492</ele>
        <time>2017-06-04T08:12:46Z</time>
      </trkpt>
      <trkpt lat="45.70999" lon="4.63113">
        <ele>505</ele>
        <time>2017-06-04T08:12:56Z</time>
      </trkpt>
      <trkpt lat="45.70995" lon="4.63134">
        <ele>505</ele>
        <time>2017-06-04T08:13:07Z</time>
      </trkpt>
      <trkpt lat="45.70983" lon="4.63156">
        <ele>503</ele>
        <time>2017-06-04T08:13:23Z</time>
      </trkpt>
      <trkpt lat="45.70972" lon="4.63178">
        <ele>503</ele>
        <time>2017-06-04T08:13:40Z</time>
      </trkpt>
      <trkpt lat="45.70959" lon="4.63205">
        <ele>506</ele>
        <time>2017-06-04T08:13:58Z</time>
      </trkpt>
      <trkpt lat="45.70938" lon="4.6323">
        <ele>510</ele>
        <time>2017-06-04T08:14:22Z</time>
      </trkpt>
      <trkpt lat="45.70922" lon="4.63241">
        <ele>516</ele>
        <time>2017-06-04T08:14:38Z</time>
      </trkpt>
      <trkpt lat="45.70911" lon="4.63247">
        <ele>524</ele>
        <time>2017-06-04T08:14:46Z</time>
      </trkpt>
      <trkpt lat="45.70905" lon="4.63252">
        <ele>521</ele>
        <time>2017-06-04T08:14:51Z</time>
      </trkpt>
      <trkpt lat="45.70905" lon="4.63252">
        <ele>521</ele>
        <time>2017-06-04T08:14:59Z</time>
      </trkpt>
      <trkpt lat="45.70905" lon="4.63252">
        <ele>521</ele>
        <time>2017-06-04T08:17:28Z</time>
      </trkpt>
      <trkpt lat="45.70907" lon="4.63228">
        <ele>531</ele>
        <time>2017-06-04T08:17:28Z</time>
      </trkpt>
      <trkpt lat="45.70913" lon="4.63209">
        <ele>534</ele>
        <time>2017-06-04T08:17:33Z</time>
      </trkpt>
      <trkpt lat="45.70918" lon="4.63186">
        <ele>519</ele>
        <time>2017-06-04T08:17:39Z</time>
      </trkpt>
      <trkpt lat="45.70919" lon="4.6317">
        <ele>528</ele>
        <time>2017-06-04T08:17:43Z</time>
      </trkpt>
      <trkpt lat="45.70919" lon="4.6317">
        <ele>528</ele>
        <time>2017-06-04T08:17:48Z</time>
      </trkpt>
      <trkpt lat="45.70919" lon="4.6317">
        <ele>528</ele>
        <time>2017-06-04T08:17:52Z</time>
      </trkpt>
      <trkpt lat="45.70917" lon="4.63157">
        <ele>526</ele>
        <time>2017-06-04T08:17:52Z</time>
      </trkpt>
      <trkpt lat="45.70918" lon="4.63131">
        <ele>520</ele>
        <time>2017-06-04T08:18:05Z</time>
      </trkpt>
      <trkpt lat="45.70919" lon="4.6311">
        <ele>522</ele>
        <time>2017-06-04T08:18:16Z</time>
      </trkpt>
      <trkpt lat="45.70914" lon="4.63077">
        <ele>534</ele>
        <time>2017-06-04T08:18:31Z</time>
      </trkpt>
      <trkpt lat="45.70906" lon="4.63051">
        <ele>534</ele>
        <time>2017-06-04T08:18:41Z</time>
      </trkpt>
      <trkpt lat="45.709" lon="4.63037">
        <ele>533</ele>
        <time>2017-06-04T08:18:47Z</time>
      </trkpt>
      <trkpt lat="45.70896" lon="4.63029">
        <ele>533</ele>
        <time>2017-06-04T08:18:53Z</time>
      </trkpt>
      <trkpt lat="45.70896" lon="4.63029">
        <ele>533</ele>
        <time>2017-06-04T08:19:03Z</time>
      </trkpt>
      <trkpt lat="45.70896" lon="4.63029">
        <ele>533</ele>
        <time>2017-06-04T08:19:40Z</time>
      </trkpt>
      <trkpt lat="45.70862" lon="4.63026">
        <ele>535</ele>
        <time>2017-06-04T08:19:49Z</time>
      </trkpt>
      <trkpt lat="45.70838" lon="4.63022">
        <ele>536</ele>
        <time>2017-06-04T08:20:01Z</time>
      </trkpt>
      <trkpt lat="45.70813" lon="4.63013">
        <ele>540</ele>
        <time>2017-06-04T08:20:12Z</time>
      </trkpt>
      <trkpt lat="45.70789" lon="4.63004">
        <ele>542</ele>
        <time>2017-06-04T08:20:23Z</time>
      </trkpt>
      <trkpt lat="45.70764" lon="4.62998">
        <ele>536</ele>
        <time>2017-06-04T08:20:29Z</time>
      </trkpt>
      <trkpt lat="45.70744" lon="4.63">
        <ele>541</ele>
        <time>2017-06-04T08:20:37Z</time>
      </trkpt>
      <trkpt lat="45.7073" lon="4.63">
        <ele>544</ele>
        <time>2017-06-04T08:20:45Z</time>
      </trkpt>
      <trkpt lat="45.70707" lon="4.62991">
        <ele>548</ele>
        <time>2017-06-04T08:20:54Z</time>
      </trkpt>
      <trkpt lat="45.70692" lon="4.62972">
        <ele>550</ele>
        <time>2017-06-04T08:21:03Z</time>
      </trkpt>
      <trkpt lat="45.70684" lon="4.62946">
        <ele>549</ele>
        <time>2017-06-04T08:21:12Z</time>
      </trkpt>
      <trkpt lat="45.70682" lon="4.62929">
        <ele>550</ele>
        <time>2017-06-04T08:21:18Z</time>
      </trkpt>
      <trkpt lat="45.70678" lon="4.62893">
        <ele>546</ele>
        <time>2017-06-04T08:21:25Z</time>
      </trkpt>
      <trkpt lat="45.70678" lon="4.62862">
        <ele>544</ele>
        <time>2017-06-04T08:21:31Z</time>
      </trkpt>
      <trkpt lat="45.70661" lon="4.62757">
        <ele>550</ele>
        <time>2017-06-04T08:21:45Z</time>
      </trkpt>
      <trkpt lat="45.70663" lon="4.62728">
        <ele>553</ele>
        <time>2017-06-04T08:21:51Z</time>
      </trkpt>
      <trkpt lat="45.70675" lon="4.62718">
        <ele>549</ele>
        <time>2017-06-04T08:21:58Z</time>
      </trkpt>
      <trkpt lat="45.70688" lon="4.6271">
        <ele>549</ele>
        <time>2017-06-04T08:22:06Z</time>
      </trkpt>
      <trkpt lat="45.70696" lon="4.62701">
        <ele>550</ele>
        <time>2017-06-04T08:22:13Z</time>
      </trkpt>
      <trkpt lat="45.70723" lon="4.6269">
        <ele>551</ele>
        <time>2017-06-04T08:22:26Z</time>
      </trkpt>
      <trkpt lat="45.70743" lon="4.62683">
        <ele>553</ele>
        <time>2017-06-04T08:22:37Z</time>
      </trkpt>
      <trkpt lat="45.70758" lon="4.6268">
        <ele>553</ele>
        <time>2017-06-04T08:22:44Z</time>
      </trkpt>
      <trkpt lat="45.7078" lon="4.62676">
        <ele>550</ele>
        <time>2017-06-04T08:22:54Z</time>
      </trkpt>
      <trkpt lat="45.70795" lon="4.62674">
        <ele>549</ele>
        <time>2017-06-04T08:23:00Z</time>
      </trkpt>
      <trkpt lat="45.7083" lon="4.62671">
        <ele>552</ele>
        <time>2017-06-04T08:23:10Z</time>
      </trkpt>
      <trkpt lat="45.70859" lon="4.62683">
        <ele>549</ele>
        <time>2017-06-04T08:23:16Z</time>
      </trkpt>
      <trkpt lat="45.70879" lon="4.62694">
        <ele>548</ele>
        <time>2017-06-04T08:23:22Z</time>
      </trkpt>
      <trkpt lat="45.70899" lon="4.62704">
        <ele>548</ele>
        <time>2017-06-04T08:23:28Z</time>
      </trkpt>
      <trkpt lat="45.70918" lon="4.62699">
        <ele>552</ele>
        <time>2017-06-04T08:23:35Z</time>
      </trkpt>
      <trkpt lat="45.70937" lon="4.62685">
        <ele>554</ele>
        <time>2017-06-04T08:23:46Z</time>
      </trkpt>
      <trkpt lat="45.70958" lon="4.62672">
        <ele>555</ele>
        <time>2017-06-04T08:24:01Z</time>
      </trkpt>
      <trkpt lat="45.70974" lon="4.62664">
        <ele>565</ele>
        <time>2017-06-04T08:24:14Z</time>
      </trkpt>
      <trkpt lat="45.70993" lon="4.62652">
        <ele>565</ele>
        <time>2017-06-04T08:24:29Z</time>
      </trkpt>
      <trkpt lat="45.70995" lon="4.62641">
        <ele>565</ele>
        <time>2017-06-04T08:24:40Z</time>
      </trkpt>
      <trkpt lat="45.70995" lon="4.62641">
        <ele>565</ele>
        <time>2017-06-04T08:24:48Z</time>
      </trkpt>
      <trkpt lat="45.70995" lon="4.62641">
        <ele>565</ele>
        <time>2017-06-04T08:24:54Z</time>
      </trkpt>
      <trkpt lat="45.7099" lon="4.62629">
        <ele>566</ele>
        <time>2017-06-04T08:24:54Z</time>
      </trkpt>
      <trkpt lat="45.7097" lon="4.62615">
        <ele>567</ele>
        <time>2017-06-04T08:25:11Z</time>
      </trkpt>
      <trkpt lat="45.7095" lon="4.62588">
        <ele>569</ele>
        <time>2017-06-04T08:25:34Z</time>
      </trkpt>
      <trkpt lat="45.70936" lon="4.62574">
        <ele>573</ele>
        <time>2017-06-04T08:25:49Z</time>
      </trkpt>
      <trkpt lat="45.70924" lon="4.62577">
        <ele>575</ele>
        <time>2017-06-04T08:26:02Z</time>
      </trkpt>
      <trkpt lat="45.70904" lon="4.62577">
        <ele>579</ele>
        <time>2017-06-04T08:26:18Z</time>
      </trkpt>
      <trkpt lat="45.70894" lon="4.62579">
        <ele>579</ele>
        <time>2017-06-04T08:26:27Z</time>
      </trkpt>
      <trkpt lat="45.70894" lon="4.62579">
        <ele>579</ele>
        <time>2017-06-04T08:26:36Z</time>
      </trkpt>
      <trkpt lat="45.70894" lon="4.62579">
        <ele>579</ele>
        <time>2017-06-04T08:26:50Z</time>
      </trkpt>
      <trkpt lat="45.70878" lon="4.62569">
        <ele>580</ele>
        <time>2017-06-04T08:26:50Z</time>
      </trkpt>
      <trkpt lat="45.70859" lon="4.6255">
        <ele>581</ele>
        <time>2017-06-04T08:26:58Z</time>
      </trkpt>
      <trkpt lat="45.7085" lon="4.62527">
        <ele>583</ele>
        <time>2017-06-04T08:27:04Z</time>
      </trkpt>
      <trkpt lat="45.70839" lon="4.62506">
        <ele>588</ele>
        <time>2017-06-04T08:27:10Z</time>
      </trkpt>
      <trkpt lat="45.70828" lon="4.62489">
        <ele>594</ele>
        <time>2017-06-04T08:27:15Z</time>
      </trkpt>
      <trkpt lat="45.70822" lon="4.62473">
        <ele>597</ele>
        <time>2017-06-04T08:27:23Z</time>
      </trkpt>
      <trkpt lat="45.7082" lon="4.62436">
        <ele>597</ele>
        <time>2017-06-04T08:27:38Z</time>
      </trkpt>
      <trkpt lat="45.70818" lon="4.6241">
        <ele>597</ele>
        <time>2017-06-04T08:27:47Z</time>
      </trkpt>
      <trkpt lat="45.70818" lon="4.62396">
        <ele>599</ele>
        <time>2017-06-04T08:27:52Z</time>
      </trkpt>
      <trkpt lat="45.70818" lon="4.62396">
        <ele>599</ele>
        <time>2017-06-04T08:27:59Z</time>
      </trkpt>
      <trkpt lat="45.70818" lon="4.62396">
        <ele>599</ele>
        <time>2017-06-04T08:28:15Z</time>
      </trkpt>
      <trkpt lat="45.70801" lon="4.62418">
        <ele>599</ele>
        <time>2017-06-04T08:28:15Z</time>
      </trkpt>
      <trkpt lat="45.70788" lon="4.62447">
        <ele>601</ele>
        <time>2017-06-04T08:28:33Z</time>
      </trkpt>
      <trkpt lat="45.70774" lon="4.62464">
        <ele>601</ele>
        <time>2017-06-04T08:28:50Z</time>
      </trkpt>
      <trkpt lat="45.7076" lon="4.62444">
        <ele>605</ele>
        <time>2017-06-04T08:29:08Z</time>
      </trkpt>
      <trkpt lat="45.70749" lon="4.6244">
        <ele>610</ele>
        <time>2017-06-04T08:29:21Z</time>
      </trkpt>
      <trkpt lat="45.70728" lon="4.62445">
        <ele>608</ele>
        <time>2017-06-04T08:29:38Z</time>
      </trkpt>
      <trkpt lat="45.70707" lon="4.62437">
        <ele>608</ele>
        <time>2017-06-04T08:29:53Z</time>
      </trkpt>
      <trkpt lat="45.70707" lon="4.62421">
        <ele>608</ele>
        <time>2017-06-04T08:30:05Z</time>
      </trkpt>
      <trkpt lat="45.70713" lon="4.62399">
        <ele>617</ele>
        <time>2017-06-04T08:30:19Z</time>
      </trkpt>
      <trkpt lat="45.70718" lon="4.62377">
        <ele>619</ele>
        <time>2017-06-04T08:30:34Z</time>
      </trkpt>
      <trkpt lat="45.70718" lon="4.62348">
        <ele>620</ele>
        <time>2017-06-04T08:30:57Z</time>
      </trkpt>
      <trkpt lat="45.70712" lon="4.62327">
        <ele>628</ele>
        <time>2017-06-04T08:31:08Z</time>
      </trkpt>
      <trkpt lat="45.70712" lon="4.62327">
        <ele>628</ele>
        <time>2017-06-04T08:31:15Z</time>
      </trkpt>
      <trkpt lat="45.70712" lon="4.62327">
        <ele>628</ele>
        <time>2017-06-04T08:31:15Z</time>
      </trkpt>
      <trkpt lat="45.70712" lon="4.62327">
        <ele>628</ele>
        <time>2017-06-04T08:32:04Z</time>
      </trkpt>
      <trkpt lat="45.70695" lon="4.62293">
        <ele>630</ele>
        <time>2017-06-04T08:32:04Z</time>
      </trkpt>
      <trkpt lat="45.70695" lon="4.62293">
        <ele>630</ele>
        <time>2017-06-04T08:32:09Z</time>
      </trkpt>
      <trkpt lat="45.70695" lon="4.62293">
        <ele>630</ele>
        <time>2017-06-04T08:32:10Z</time>
      </trkpt>
      <trkpt lat="45.70695" lon="4.62293">
        <ele>630</ele>
        <time>2017-06-04T08:32:13Z</time>
      </trkpt>
      <trkpt lat="45.70696" lon="4.6228">
        <ele>631</ele>
        <time>2017-06-04T08:32:13Z</time>
      </trkpt>
      <trkpt lat="45.70696" lon="4.6228">
        <ele>631</ele>
        <time>2017-06-04T08:32:19Z</time>
      </trkpt>
      <trkpt lat="45.70696" lon="4.6228">
        <ele>631</ele>
        <time>2017-06-04T08:32:20Z</time>
      </trkpt>
      <trkpt lat="45.70696" lon="4.6228">
        <ele>631</ele>
        <time>2017-06-04T08:32:29Z</time>
      </trkpt>
      <trkpt lat="45.70699" lon="4.62256">
        <ele>632</ele>
        <time>2017-06-04T08:32:29Z</time>
      </trkpt>
      <trkpt lat="45.70681" lon="4.62214">
        <ele>639</ele>
        <time>2017-06-04T08:32:58Z</time>
      </trkpt>
      <trkpt lat="45.70677" lon="4.62187">
        <ele>641</ele>
        <time>2017-06-04T08:33:13Z</time>
      </trkpt>
      <trkpt lat="45.70672" lon="4.62159">
        <ele>646</ele>
        <time>2017-06-04T08:33:26Z</time>
      </trkpt>
      <trkpt lat="45.7067" lon="4.62138">
        <ele>645</ele>
        <time>2017-06-04T08:33:35Z</time>
      </trkpt>
      <trkpt lat="45.70671" lon="4.62123">
        <ele>645</ele>
        <time>2017-06-04T08:33:41Z</time>
      </trkpt>
      <trkpt lat="45.70668" lon="4.62101">
        <ele>647</ele>
        <time>2017-06-04T08:33:50Z</time>
      </trkpt>
      <trkpt lat="45.70674" lon="4.62084">
        <ele>649</ele>
        <time>2017-06-04T08:33:58Z</time>
      </trkpt>
      <trkpt lat="45.70679" lon="4.62059">
        <ele>648</ele>
        <time>2017-06-04T08:34:11Z</time>
      </trkpt>
      <trkpt lat="45.70679" lon="4.62029">
        <ele>649</ele>
        <time>2017-06-04T08:34:23Z</time>
      </trkpt>
      <trkpt lat="45.70685" lon="4.62003">
        <ele>650</ele>
        <time>2017-06-04T08:34:33Z</time>
      </trkpt>
      <trkpt lat="45.70689" lon="4.6198">
        <ele>652</ele>
        <time>2017-06-04T08:34:43Z</time>
      </trkpt>
      <trkpt lat="45.70691" lon="4.61974">
        <ele>652</ele>
        <time>2017-06-04T08:34:46Z</time>
      </trkpt>
      <trkpt lat="45.70691" lon="4.61974">
        <ele>652</ele>
        <time>2017-06-04T08:34:53Z</time>
      </trkpt>
      <trkpt lat="45.70691" lon="4.61974">
        <ele>652</ele>
        <time>2017-06-04T08:35:53Z</time>
      </trkpt>
      <trkpt lat="45.70692" lon="4.61953">
        <ele>653</ele>
        <time>2017-06-04T08:35:53Z</time>
      </trkpt>
      <trkpt lat="45.70694" lon="4.6193">
        <ele>654</ele>
        <time>2017-06-04T08:36:04Z</time>
      </trkpt>
      <trkpt lat="45.7069" lon="4.61909">
        <ele>658</ele>
        <time>2017-06-04T08:36:14Z</time>
      </trkpt>
      <trkpt lat="45.70685" lon="4.61886">
        <ele>659</ele>
        <time>2017-06-04T08:36:24Z</time>
      </trkpt>
      <trkpt lat="45.70683" lon="4.61853">
        <ele>661</ele>
        <time>2017-06-04T08:36:36Z</time>
      </trkpt>
      <trkpt lat="45.70678" lon="4.61815">
        <ele>664</ele>
        <time>2017-06-04T08:36:49Z</time>
      </trkpt>
      <trkpt lat="45.70677" lon="4.61802">
        <ele>664</ele>
        <time>2017-06-04T08:36:55Z</time>
      </trkpt>
      <trkpt lat="45.7067" lon="4.61758">
        <ele>669</ele>
        <time>2017-06-04T08:37:09Z</time>
      </trkpt>
      <trkpt lat="45.70667" lon="4.61726">
        <ele>668</ele>
        <time>2017-06-04T08:37:22Z</time>
      </trkpt>
      <trkpt lat="45.70664" lon="4.61685">
        <ele>674</ele>
        <time>2017-06-04T08:37:34Z</time>
      </trkpt>
      <trkpt lat="45.70654" lon="4.61664">
        <ele>674</ele>
        <time>2017-06-04T08:37:45Z</time>
      </trkpt>
      <trkpt lat="45.70609" lon="4.61623">
        <ele>675</ele>
        <time>2017-06-04T08:38:03Z</time>
      </trkpt>
      <trkpt lat="45.70613" lon="4.6159">
        <ele>675</ele>
        <time>2017-06-04T08:38:13Z</time>
      </trkpt>
      <trkpt lat="45.70613" lon="4.61571">
        <ele>673</ele>
        <time>2017-06-04T08:38:16Z</time>
      </trkpt>
      <trkpt lat="45.70613" lon="4.61547">
        <ele>672</ele>
        <time>2017-06-04T08:38:19Z</time>
      </trkpt>
      <trkpt lat="45.70609" lon="4.6152">
        <ele>671</ele>
        <time>2017-06-04T08:38:22Z</time>
      </trkpt>
      <trkpt lat="45.70593" lon="4.61454">
        <ele>666</ele>
        <time>2017-06-04T08:38:28Z</time>
      </trkpt>
      <trkpt lat="45.70572" lon="4.6138">
        <ele>665</ele>
        <time>2017-06-04T08:38:34Z</time>
      </trkpt>
      <trkpt lat="45.7055" lon="4.61303">
        <ele>662</ele>
        <time>2017-06-04T08:38:40Z</time>
      </trkpt>
      <trkpt lat="45.70533" lon="4.61243">
        <ele>661</ele>
        <time>2017-06-04T08:38:45Z</time>
      </trkpt>
      <trkpt lat="45.7053" lon="4.61206">
        <ele>660</ele>
        <time>2017-06-04T08:38:48Z</time>
      </trkpt>
      <trkpt lat="45.70532" lon="4.6117">
        <ele>659</ele>
        <time>2017-06-04T08:38:51Z</time>
      </trkpt>
      <trkpt lat="45.70539" lon="4.61135">
        <ele>658</ele>
        <time>2017-06-04T08:38:54Z</time>
      </trkpt>
      <trkpt lat="45.70548" lon="4.61102">
        <ele>657</ele>
        <time>2017-06-04T08:38:57Z</time>
      </trkpt>
      <trkpt lat="45.70563" lon="4.61063">
        <ele>659</ele>
        <time>2017-06-04T08:39:02Z</time>
      </trkpt>
      <trkpt lat="45.70593" lon="4.61014">
        <ele>654</ele>
        <time>2017-06-04T08:39:08Z</time>
      </trkpt>
      <trkpt lat="45.70606" lon="4.60995">
        <ele>660</ele>
        <time>2017-06-04T08:39:13Z</time>
      </trkpt>
      <trkpt lat="45.70626" lon="4.60963">
        <ele>662</ele>
        <time>2017-06-04T08:39:20Z</time>
      </trkpt>
      <trkpt lat="45.70635" lon="4.60954">
        <ele>663</ele>
        <time>2017-06-04T08:39:23Z</time>
      </trkpt>
      <trkpt lat="45.70647" lon="4.60944">
        <ele>663</ele>
        <time>2017-06-04T08:39:28Z</time>
      </trkpt>
      <trkpt lat="45.70658" lon="4.60924">
        <ele>665</ele>
        <time>2017-06-04T08:39:37Z</time>
      </trkpt>
      <trkpt lat="45.70658" lon="4.60924">
        <ele>665</ele>
        <time>2017-06-04T08:39:42Z</time>
      </trkpt>
      <trkpt lat="45.70658" lon="4.60924">
        <ele>665</ele>
        <time>2017-06-04T08:39:42Z</time>
      </trkpt>
      <trkpt lat="45.70658" lon="4.60924">
        <ele>665</ele>
        <time>2017-06-04T08:39:49Z</time>
      </trkpt>
      <trkpt lat="45.70669" lon="4.60924">
        <ele>665</ele>
        <time>2017-06-04T08:39:49Z</time>
      </trkpt>
      <trkpt lat="45.70695" lon="4.60919">
        <ele>664</ele>
        <time>2017-06-04T08:40:06Z</time>
      </trkpt>
      <trkpt lat="45.70708" lon="4.60919">
        <ele>664</ele>
        <time>2017-06-04T08:40:14Z</time>
      </trkpt>
      <trkpt lat="45.70719" lon="4.60923">
        <ele>664</ele>
        <time>2017-06-04T08:40:21Z</time>
      </trkpt>
      <trkpt lat="45.70728" lon="4.60929">
        <ele>665</ele>
        <time>2017-06-04T08:40:31Z</time>
      </trkpt>
      <trkpt lat="45.70728" lon="4.60929">
        <ele>665</ele>
        <time>2017-06-04T08:40:40Z</time>
      </trkpt>
      <trkpt lat="45.70728" lon="4.60929">
        <ele>665</ele>
        <time>2017-06-04T08:41:15Z</time>
      </trkpt>
      <trkpt lat="45.70729" lon="4.60888">
        <ele>676</ele>
        <time>2017-06-04T08:41:15Z</time>
      </trkpt>
      <trkpt lat="45.70732" lon="4.60873">
        <ele>677</ele>
        <time>2017-06-04T08:41:20Z</time>
      </trkpt>
      <trkpt lat="45.70732" lon="4.60857">
        <ele>679</ele>
        <time>2017-06-04T08:41:28Z</time>
      </trkpt>
      <trkpt lat="45.70732" lon="4.60857">
        <ele>679</ele>
        <time>2017-06-04T08:41:33Z</time>
      </trkpt>
      <trkpt lat="45.70732" lon="4.60857">
        <ele>679</ele>
        <time>2017-06-04T08:42:02Z</time>
      </trkpt>
      <trkpt lat="45.70742" lon="4.60818">
        <ele>689</ele>
        <time>2017-06-04T08:42:02Z</time>
      </trkpt>
      <trkpt lat="45.70735" lon="4.60797">
        <ele>691</ele>
        <time>2017-06-04T08:42:15Z</time>
      </trkpt>
      <trkpt lat="45.70735" lon="4.60784">
        <ele>692</ele>
        <time>2017-06-04T08:42:24Z</time>
      </trkpt>
      <trkpt lat="45.70742" lon="4.60756">
        <ele>696</ele>
        <time>2017-06-04T08:42:42Z</time>
      </trkpt>
      <trkpt lat="45.70744" lon="4.60732">
        <ele>703</ele>
        <time>2017-06-04T08:42:53Z</time>
      </trkpt>
      <trkpt lat="45.70736" lon="4.60711">
        <ele>706</ele>
        <time>2017-06-04T08:43:10Z</time>
      </trkpt>
      <trkpt lat="45.70727" lon="4.60702">
        <ele>707</ele>
        <time>2017-06-04T08:43:19Z</time>
      </trkpt>
      <trkpt lat="45.70727" lon="4.60702">
        <ele>707</ele>
        <time>2017-06-04T08:43:26Z</time>
      </trkpt>
      <trkpt lat="45.70727" lon="4.60702">
        <ele>707</ele>
        <time>2017-06-04T08:43:58Z</time>
      </trkpt>
      <trkpt lat="45.70722" lon="4.60686">
        <ele>708</ele>
        <time>2017-06-04T08:43:58Z</time>
      </trkpt>
      <trkpt lat="45.70723" lon="4.60679">
        <ele>709</ele>
        <time>2017-06-04T08:44:03Z</time>
      </trkpt>
      <trkpt lat="45.70723" lon="4.60679">
        <ele>709</ele>
        <time>2017-06-04T08:44:10Z</time>
      </trkpt>
      <trkpt lat="45.70723" lon="4.60679">
        <ele>709</ele>
        <time>2017-06-04T08:44:14Z</time>
      </trkpt>
      <trkpt lat="45.70731" lon="4.6067">
        <ele>709</ele>
        <time>2017-06-04T08:44:14Z</time>
      </trkpt>
      <trkpt lat="45.70737" lon="4.60652">
        <ele>716</ele>
        <time>2017-06-04T08:44:25Z</time>
      </trkpt>
      <trkpt lat="45.70738" lon="4.60629">
        <ele>718</ele>
        <time>2017-06-04T08:44:41Z</time>
      </trkpt>
      <trkpt lat="45.7074" lon="4.60611">
        <ele>720</ele>
        <time>2017-06-04T08:44:51Z</time>
      </trkpt>
      <trkpt lat="45.70739" lon="4.60588">
        <ele>721</ele>
        <time>2017-06-04T08:45:07Z</time>
      </trkpt>
      <trkpt lat="45.70735" lon="4.60557">
        <ele>725</ele>
        <time>2017-06-04T08:45:27Z</time>
      </trkpt>
      <trkpt lat="45.70726" lon="4.60532">
        <ele>726</ele>
        <time>2017-06-04T08:45:41Z</time>
      </trkpt>
      <trkpt lat="45.7072" lon="4.60512">
        <ele>727</ele>
        <time>2017-06-04T08:45:53Z</time>
      </trkpt>
      <trkpt lat="45.70721" lon="4.60491">
        <ele>726</ele>
        <time>2017-06-04T08:46:05Z</time>
      </trkpt>
      <trkpt lat="45.70713" lon="4.60472">
        <ele>726</ele>
        <time>2017-06-04T08:46:16Z</time>
      </trkpt>
      <trkpt lat="45.70709" lon="4.60456">
        <ele>726</ele>
        <time>2017-06-04T08:46:27Z</time>
      </trkpt>
      <trkpt lat="45.70684" lon="4.60453">
        <ele>727</ele>
        <time>2017-06-04T08:46:44Z</time>
      </trkpt>
      <trkpt lat="45.70676" lon="4.60446">
        <ele>726</ele>
        <time>2017-06-04T08:46:52Z</time>
      </trkpt>
      <trkpt lat="45.70676" lon="4.60446">
        <ele>726</ele>
        <time>2017-06-04T08:46:58Z</time>
      </trkpt>
      <trkpt lat="45.70676" lon="4.60446">
        <ele>726</ele>
        <time>2017-06-04T08:46:58Z</time>
      </trkpt>
      <trkpt lat="45.70676" lon="4.60446">
        <ele>726</ele>
        <time>2017-06-04T08:47:14Z</time>
      </trkpt>
      <trkpt lat="45.70647" lon="4.60399">
        <ele>726</ele>
        <time>2017-06-04T08:47:19Z</time>
      </trkpt>
      <trkpt lat="45.70623" lon="4.60357">
        <ele>726</ele>
        <time>2017-06-04T08:47:25Z</time>
      </trkpt>
      <trkpt lat="45.70603" lon="4.60309">
        <ele>720</ele>
        <time>2017-06-04T08:47:30Z</time>
      </trkpt>
      <trkpt lat="45.70591" lon="4.60281">
        <ele>719</ele>
        <time>2017-06-04T08:47:34Z</time>
      </trkpt>
      <trkpt lat="45.70579" lon="4.60196">
        <ele>727</ele>
        <time>2017-06-04T08:47:41Z</time>
      </trkpt>
      <trkpt lat="45.70574" lon="4.60108">
        <ele>722</ele>
        <time>2017-06-04T08:47:48Z</time>
      </trkpt>
      <trkpt lat="45.7057" lon="4.60055">
        <ele>722</ele>
        <time>2017-06-04T08:47:53Z</time>
      </trkpt>
      <trkpt lat="45.70566" lon="4.59995">
        <ele>722</ele>
        <time>2017-06-04T08:48:01Z</time>
      </trkpt>
      <trkpt lat="45.7057" lon="4.59962">
        <ele>726</ele>
        <time>2017-06-04T08:48:08Z</time>
      </trkpt>
      <trkpt lat="45.70579" lon="4.59918">
        <ele>716</ele>
        <time>2017-06-04T08:48:15Z</time>
      </trkpt>
      <trkpt lat="45.70581" lon="4.59891">
        <ele>725</ele>
        <time>2017-06-04T08:48:20Z</time>
      </trkpt>
      <trkpt lat="45.70585" lon="4.59857">
        <ele>704</ele>
        <time>2017-06-04T08:48:26Z</time>
      </trkpt>
      <trkpt lat="45.70586" lon="4.59823">
        <ele>707</ele>
        <time>2017-06-04T08:48:32Z</time>
      </trkpt>
      <trkpt lat="45.70584" lon="4.59796">
        <ele>701</ele>
        <time>2017-06-04T08:48:37Z</time>
      </trkpt>
      <trkpt lat="45.70578" lon="4.59756">
        <ele>718</ele>
        <time>2017-06-04T08:48:44Z</time>
      </trkpt>
      <trkpt lat="45.70569" lon="4.59727">
        <ele>723</ele>
        <time>2017-06-04T08:48:49Z</time>
      </trkpt>
      <trkpt lat="45.70559" lon="4.59682">
        <ele>723</ele>
        <time>2017-06-04T08:48:57Z</time>
      </trkpt>
      <trkpt lat="45.70547" lon="4.59647">
        <ele>722</ele>
        <time>2017-06-04T08:49:02Z</time>
      </trkpt>
      <trkpt lat="45.70539" lon="4.59611">
        <ele>723</ele>
        <time>2017-06-04T08:49:08Z</time>
      </trkpt>
      <trkpt lat="45.70529" lon="4.59569">
        <ele>721</ele>
        <time>2017-06-04T08:49:15Z</time>
      </trkpt>
      <trkpt lat="45.7052" lon="4.59527">
        <ele>721</ele>
        <time>2017-06-04T08:49:22Z</time>
      </trkpt>
      <trkpt lat="45.70515" lon="4.5949">
        <ele>722</ele>
        <time>2017-06-04T08:49:28Z</time>
      </trkpt>
      <trkpt lat="45.70508" lon="4.59456">
        <ele>719</ele>
        <time>2017-06-04T08:49:34Z</time>
      </trkpt>
      <trkpt lat="45.70507" lon="4.59424">
        <ele>724</ele>
        <time>2017-06-04T08:49:40Z</time>
      </trkpt>
      <trkpt lat="45.70511" lon="4.59392">
        <ele>723</ele>
        <time>2017-06-04T08:49:47Z</time>
      </trkpt>
      <trkpt lat="45.70522" lon="4.59354">
        <ele>723</ele>
        <time>2017-06-04T08:49:54Z</time>
      </trkpt>
      <trkpt lat="45.70536" lon="4.59328">
        <ele>726</ele>
        <time>2017-06-04T08:50:01Z</time>
      </trkpt>
      <trkpt lat="45.70551" lon="4.59314">
        <ele>724</ele>
        <time>2017-06-04T08:50:07Z</time>
      </trkpt>
      <trkpt lat="45.7055" lon="4.59299">
        <ele>725</ele>
        <time>2017-06-04T08:50:18Z</time>
      </trkpt>
      <trkpt lat="45.70542" lon="4.59284">
        <ele>726</ele>
        <time>2017-06-04T08:50:28Z</time>
      </trkpt>
      <trkpt lat="45.70547" lon="4.59266">
        <ele>726</ele>
        <time>2017-06-04T08:50:36Z</time>
      </trkpt>
      <trkpt lat="45.70547" lon="4.59266">
        <ele>726</ele>
        <time>2017-06-04T08:50:44Z</time>
      </trkpt>
      <trkpt lat="45.70547" lon="4.59266">
        <ele>726</ele>
        <time>2017-06-04T08:50:50Z</time>
      </trkpt>
      <trkpt lat="45.70526" lon="4.59276">
        <ele>727</ele>
        <time>2017-06-04T08:50:50Z</time>
      </trkpt>
      <trkpt lat="45.70501" lon="4.59289">
        <ele>727</ele>
        <time>2017-06-04T08:50:59Z</time>
      </trkpt>
      <trkpt lat="45.7048" lon="4.59303">
        <ele>727</ele>
        <time>2017-06-04T08:51:05Z</time>
      </trkpt>
      <trkpt lat="45.70453" lon="4.59315">
        <ele>727</ele>
        <time>2017-06-04T08:51:13Z</time>
      </trkpt>
      <trkpt lat="45.70421" lon="4.59324">
        <ele>727</ele>
        <time>2017-06-04T08:51:19Z</time>
      </trkpt>
      <trkpt lat="45.70391" lon="4.59351">
        <ele>724</ele>
        <time>2017-06-04T08:51:25Z</time>
      </trkpt>
      <trkpt lat="45.70378" lon="4.59366">
        <ele>723</ele>
        <time>2017-06-04T08:51:28Z</time>
      </trkpt>
      <trkpt lat="45.70364" lon="4.59381">
        <ele>722</ele>
        <time>2017-06-04T08:51:31Z</time>
      </trkpt>
      <trkpt lat="45.70353" lon="4.59391">
        <ele>721</ele>
        <time>2017-06-04T08:51:34Z</time>
      </trkpt>
      <trkpt lat="45.70349" lon="4.59395">
        <ele>721</ele>
        <time>2017-06-04T08:51:36Z</time>
      </trkpt>
      <trkpt lat="45.70349" lon="4.59395">
        <ele>721</ele>
        <time>2017-06-04T08:51:42Z</time>
      </trkpt>
      <trkpt lat="45.70349" lon="4.59395">
        <ele>721</ele>
        <time>2017-06-04T09:00:34Z</time>
      </trkpt>
      <trkpt lat="45.70339" lon="4.59411">
        <ele>719</ele>
        <time>2017-06-04T09:00:34Z</time>
      </trkpt>
      <trkpt lat="45.70325" lon="4.59427">
        <ele>714</ele>
        <time>2017-06-04T09:00:52Z</time>
      </trkpt>
      <trkpt lat="45.70301" lon="4.59447">
        <ele>710</ele>
        <time>2017-06-04T09:00:57Z</time>
      </trkpt>
      <trkpt lat="45.7027" lon="4.59486">
        <ele>706</ele>
        <time>2017-06-04T09:01:03Z</time>
      </trkpt>
      <trkpt lat="45.7025" lon="4.59515">
        <ele>710</ele>
        <time>2017-06-04T09:01:08Z</time>
      </trkpt>
      <trkpt lat="45.70228" lon="4.5955">
        <ele>698</ele>
        <time>2017-06-04T09:01:14Z</time>
      </trkpt>
      <trkpt lat="45.70209" lon="4.59578">
        <ele>696</ele>
        <time>2017-06-04T09:01:20Z</time>
      </trkpt>
      <trkpt lat="45.70196" lon="4.59605">
        <ele>705</ele>
        <time>2017-06-04T09:01:25Z</time>
      </trkpt>
      <trkpt lat="45.70187" lon="4.59637">
        <ele>706</ele>
        <time>2017-06-04T09:01:30Z</time>
      </trkpt>
      <trkpt lat="45.70177" lon="4.59672">
        <ele>710</ele>
        <time>2017-06-04T09:01:36Z</time>
      </trkpt>
      <trkpt lat="45.70166" lon="4.59691">
        <ele>696</ele>
        <time>2017-06-04T09:01:42Z</time>
      </trkpt>
      <trkpt lat="45.70161" lon="4.59718">
        <ele>699</ele>
        <time>2017-06-04T09:01:51Z</time>
      </trkpt>
      <trkpt lat="45.70152" lon="4.59736">
        <ele>703</ele>
        <time>2017-06-04T09:02:00Z</time>
      </trkpt>
      <trkpt lat="45.70131" lon="4.59775">
        <ele>709</ele>
        <time>2017-06-04T09:02:10Z</time>
      </trkpt>
      <trkpt lat="45.701" lon="4.59842">
        <ele>713</ele>
        <time>2017-06-04T09:02:20Z</time>
      </trkpt>
      <trkpt lat="45.7009" lon="4.5987">
        <ele>718</ele>
        <time>2017-06-04T09:02:26Z</time>
      </trkpt>
      <trkpt lat="45.70071" lon="4.59906">
        <ele>703</ele>
        <time>2017-06-04T09:02:33Z</time>
      </trkpt>
      <trkpt lat="45.70061" lon="4.59927">
        <ele>710</ele>
        <time>2017-06-04T09:02:37Z</time>
      </trkpt>
      <trkpt lat="45.70044" lon="4.59966">
        <ele>709</ele>
        <time>2017-06-04T09:02:43Z</time>
      </trkpt>
      <trkpt lat="45.70028" lon="4.59994">
        <ele>708</ele>
        <time>2017-06-04T09:02:48Z</time>
      </trkpt>
      <trkpt lat="45.70005" lon="4.60028">
        <ele>716</ele>
        <time>2017-06-04T09:02:54Z</time>
      </trkpt>
      <trkpt lat="45.69973" lon="4.60086">
        <ele>711</ele>
        <time>2017-06-04T09:03:01Z</time>
      </trkpt>
      <trkpt lat="45.69961" lon="4.60105">
        <ele>710</ele>
        <time>2017-06-04T09:03:04Z</time>
      </trkpt>
      <trkpt lat="45.69932" lon="4.60141">
        <ele>708</ele>
        <time>2017-06-04T09:03:10Z</time>
      </trkpt>
      <trkpt lat="45.6991" lon="4.6017">
        <ele>703</ele>
        <time>2017-06-04T09:03:15Z</time>
      </trkpt>
      <trkpt lat="45.6989" lon="4.60195">
        <ele>702</ele>
        <time>2017-06-04T09:03:21Z</time>
      </trkpt>
      <trkpt lat="45.69878" lon="4.60212">
        <ele>702</ele>
        <time>2017-06-04T09:03:28Z</time>
      </trkpt>
      <trkpt lat="45.69865" lon="4.60238">
        <ele>702</ele>
        <time>2017-06-04T09:03:34Z</time>
      </trkpt>
      <trkpt lat="45.69858" lon="4.60264">
        <ele>707</ele>
        <time>2017-06-04T09:03:40Z</time>
      </trkpt>
      <trkpt lat="45.69857" lon="4.60285">
        <ele>708</ele>
        <time>2017-06-04T09:03:48Z</time>
      </trkpt>
      <trkpt lat="45.69856" lon="4.60326">
        <ele>708</ele>
        <time>2017-06-04T09:03:58Z</time>
      </trkpt>
      <trkpt lat="45.69851" lon="4.60389">
        <ele>712</ele>
        <time>2017-06-04T09:04:07Z</time>
      </trkpt>
      <trkpt lat="45.69848" lon="4.60439">
        <ele>711</ele>
        <time>2017-06-04T09:04:13Z</time>
      </trkpt>
      <trkpt lat="45.69849" lon="4.60501">
        <ele>705</ele>
        <time>2017-06-04T09:04:18Z</time>
      </trkpt>
      <trkpt lat="45.69852" lon="4.60573">
        <ele>703</ele>
        <time>2017-06-04T09:04:24Z</time>
      </trkpt>
      <trkpt lat="45.69882" lon="4.60626">
        <ele>699</ele>
        <time>2017-06-04T09:04:30Z</time>
      </trkpt>
      <trkpt lat="45.69911" lon="4.6068">
        <ele>695</ele>
        <time>2017-06-04T09:04:36Z</time>
      </trkpt>
      <trkpt lat="45.6992" lon="4.60725">
        <ele>707</ele>
        <time>2017-06-04T09:04:41Z</time>
      </trkpt>
      <trkpt lat="45.69924" lon="4.60741">
        <ele>703</ele>
        <time>2017-06-04T09:04:47Z</time>
      </trkpt>
      <trkpt lat="45.69924" lon="4.60778">
        <ele>709</ele>
        <time>2017-06-04T09:04:56Z</time>
      </trkpt>
      <trkpt lat="45.69923" lon="4.608">
        <ele>711</ele>
        <time>2017-06-04T09:05:01Z</time>
      </trkpt>
      <trkpt lat="45.69915" lon="4.60842">
        <ele>701</ele>
        <time>2017-06-04T09:05:11Z</time>
      </trkpt>
      <trkpt lat="45.69899" lon="4.60885">
        <ele>699</ele>
        <time>2017-06-04T09:05:22Z</time>
      </trkpt>
      <trkpt lat="45.69893" lon="4.60909">
        <ele>702</ele>
        <time>2017-06-04T09:05:29Z</time>
      </trkpt>
      <trkpt lat="45.69891" lon="4.60923">
        <ele>708</ele>
        <time>2017-06-04T09:05:34Z</time>
      </trkpt>
      <trkpt lat="45.69885" lon="4.6095">
        <ele>706</ele>
        <time>2017-06-04T09:05:42Z</time>
      </trkpt>
      <trkpt lat="45.6988" lon="4.6097">
        <ele>707</ele>
        <time>2017-06-04T09:05:54Z</time>
      </trkpt>
      <trkpt lat="45.69882" lon="4.61021">
        <ele>710</ele>
        <time>2017-06-04T09:06:12Z</time>
      </trkpt>
      <trkpt lat="45.69886" lon="4.61042">
        <ele>710</ele>
        <time>2017-06-04T09:06:20Z</time>
      </trkpt>
      <trkpt lat="45.69896" lon="4.61077">
        <ele>714</ele>
        <time>2017-06-04T09:06:32Z</time>
      </trkpt>
      <trkpt lat="45.69907" lon="4.61105">
        <ele>715</ele>
        <time>2017-06-04T09:06:42Z</time>
      </trkpt>
      <trkpt lat="45.6991" lon="4.61132">
        <ele>714</ele>
        <time>2017-06-04T09:06:50Z</time>
      </trkpt>
      <trkpt lat="45.69903" lon="4.61177">
        <ele>722</ele>
        <time>2017-06-04T09:06:59Z</time>
      </trkpt>
      <trkpt lat="45.69883" lon="4.61205">
        <ele>719</ele>
        <time>2017-06-04T09:07:05Z</time>
      </trkpt>
      <trkpt lat="45.69857" lon="4.61239">
        <ele>717</ele>
        <time>2017-06-04T09:07:11Z</time>
      </trkpt>
      <trkpt lat="45.69821" lon="4.61268">
        <ele>708</ele>
        <time>2017-06-04T09:07:17Z</time>
      </trkpt>
      <trkpt lat="45.69807" lon="4.61292">
        <ele>707</ele>
        <time>2017-06-04T09:07:21Z</time>
      </trkpt>
      <trkpt lat="45.69799" lon="4.61314">
        <ele>708</ele>
        <time>2017-06-04T09:07:25Z</time>
      </trkpt>
      <trkpt lat="45.69794" lon="4.61332">
        <ele>708</ele>
        <time>2017-06-04T09:07:28Z</time>
      </trkpt>
      <trkpt lat="45.69791" lon="4.61358">
        <ele>713</ele>
        <time>2017-06-04T09:07:33Z</time>
      </trkpt>
      <trkpt lat="45.69793" lon="4.61381">
        <ele>714</ele>
        <time>2017-06-04T09:07:38Z</time>
      </trkpt>
      <trkpt lat="45.69796" lon="4.61401">
        <ele>716</ele>
        <time>2017-06-04T09:07:45Z</time>
      </trkpt>
      <trkpt lat="45.69802" lon="4.61443">
        <ele>719</ele>
        <time>2017-06-04T09:07:55Z</time>
      </trkpt>
      <trkpt lat="45.69802" lon="4.61494">
        <ele>719</ele>
        <time>2017-06-04T09:08:03Z</time>
      </trkpt>
      <trkpt lat="45.69799" lon="4.61572">
        <ele>716</ele>
        <time>2017-06-04T09:08:11Z</time>
      </trkpt>
      <trkpt lat="45.69805" lon="4.61624">
        <ele>714</ele>
        <time>2017-06-04T09:08:17Z</time>
      </trkpt>
      <trkpt lat="45.69816" lon="4.61659">
        <ele>718</ele>
        <time>2017-06-04T09:08:24Z</time>
      </trkpt>
      <trkpt lat="45.69824" lon="4.61679">
        <ele>715</ele>
        <time>2017-06-04T09:08:30Z</time>
      </trkpt>
      <trkpt lat="45.6984" lon="4.61705">
        <ele>725</ele>
        <time>2017-06-04T09:08:43Z</time>
      </trkpt>
      <trkpt lat="45.69855" lon="4.61724">
        <ele>723</ele>
        <time>2017-06-04T09:08:57Z</time>
      </trkpt>
      <trkpt lat="45.69874" lon="4.61738">
        <ele>725</ele>
        <time>2017-06-04T09:09:10Z</time>
      </trkpt>
      <trkpt lat="45.69895" lon="4.61753">
        <ele>719</ele>
        <time>2017-06-04T09:09:22Z</time>
      </trkpt>
      <trkpt lat="45.69917" lon="4.61772">
        <ele>729</ele>
        <time>2017-06-04T09:09:32Z</time>
      </trkpt>
      <trkpt lat="45.69917" lon="4.61772">
        <ele>729</ele>
        <time>2017-06-04T09:09:38Z</time>
      </trkpt>
      <trkpt lat="45.69917" lon="4.61772">
        <ele>729</ele>
        <time>2017-06-04T09:09:38Z</time>
      </trkpt>
      <trkpt lat="45.69917" lon="4.61772">
        <ele>729</ele>
        <time>2017-06-04T09:09:44Z</time>
      </trkpt>
      <trkpt lat="45.69925" lon="4.61781">
        <ele>728</ele>
        <time>2017-06-04T09:09:44Z</time>
      </trkpt>
      <trkpt lat="45.69936" lon="4.61809">
        <ele>726</ele>
        <time>2017-06-04T09:09:50Z</time>
      </trkpt>
      <trkpt lat="45.6995" lon="4.6185">
        <ele>720</ele>
        <time>2017-06-04T09:09:55Z</time>
      </trkpt>
      <trkpt lat="45.69962" lon="4.61872">
        <ele>720</ele>
        <time>2017-06-04T09:09:58Z</time>
      </trkpt>
      <trkpt lat="45.69975" lon="4.61897">
        <ele>721</ele>
        <time>2017-06-04T09:10:04Z</time>
      </trkpt>
      <trkpt lat="45.69991" lon="4.61924">
        <ele>720</ele>
        <time>2017-06-04T09:10:09Z</time>
      </trkpt>
      <trkpt lat="45.69991" lon="4.61924">
        <ele>720</ele>
        <time>2017-06-04T09:10:14Z</time>
      </trkpt>
      <trkpt lat="45.69991" lon="4.61924">
        <ele>720</ele>
        <time>2017-06-04T09:10:15Z</time>
      </trkpt>
      <trkpt lat="45.69991" lon="4.61924">
        <ele>720</ele>
        <time>2017-06-04T09:10:43Z</time>
      </trkpt>
      <trkpt lat="45.70018" lon="4.6192">
        <ele>724</ele>
        <time>2017-06-04T09:10:43Z</time>
      </trkpt>
      <trkpt lat="45.7004" lon="4.61954">
        <ele>724</ele>
        <time>2017-06-04T09:10:50Z</time>
      </trkpt>
      <trkpt lat="45.70061" lon="4.61989">
        <ele>723</ele>
        <time>2017-06-04T09:10:56Z</time>
      </trkpt>
      <trkpt lat="45.70069" lon="4.62022">
        <ele>717</ele>
        <time>2017-06-04T09:11:02Z</time>
      </trkpt>
      <trkpt lat="45.70071" lon="4.62061">
        <ele>714</ele>
        <time>2017-06-04T09:11:08Z</time>
      </trkpt>
      <trkpt lat="45.70067" lon="4.62081">
        <ele>713</ele>
        <time>2017-06-04T09:11:14Z</time>
      </trkpt>
      <trkpt lat="45.70082" lon="4.62118">
        <ele>703</ele>
        <time>2017-06-04T09:11:27Z</time>
      </trkpt>
      <trkpt lat="45.70091" lon="4.62136">
        <ele>703</ele>
        <time>2017-06-04T09:11:34Z</time>
      </trkpt>
      <trkpt lat="45.7011" lon="4.6216">
        <ele>701</ele>
        <time>2017-06-04T09:11:44Z</time>
      </trkpt>
      <trkpt lat="45.70123" lon="4.62164">
        <ele>703</ele>
        <time>2017-06-04T09:11:51Z</time>
      </trkpt>
      <trkpt lat="45.70141" lon="4.62189">
        <ele>687</ele>
        <time>2017-06-04T09:11:58Z</time>
      </trkpt>
      <trkpt lat="45.70167" lon="4.6221">
        <ele>691</ele>
        <time>2017-06-04T09:12:05Z</time>
      </trkpt>
      <trkpt lat="45.70206" lon="4.62265">
        <ele>676</ele>
        <time>2017-06-04T09:12:12Z</time>
      </trkpt>
      <trkpt lat="45.7023" lon="4.62304">
        <ele>675</ele>
        <time>2017-06-04T09:12:18Z</time>
      </trkpt>
      <trkpt lat="45.7025" lon="4.62338">
        <ele>675</ele>
        <time>2017-06-04T09:12:24Z</time>
      </trkpt>
      <trkpt lat="45.70271" lon="4.62371">
        <ele>672</ele>
        <time>2017-06-04T09:12:29Z</time>
      </trkpt>
      <trkpt lat="45.70288" lon="4.62405">
        <ele>671</ele>
        <time>2017-06-04T09:12:35Z</time>
      </trkpt>
      <trkpt lat="45.70314" lon="4.62458">
        <ele>666</ele>
        <time>2017-06-04T09:12:43Z</time>
      </trkpt>
      <trkpt lat="45.70323" lon="4.62509">
        <ele>664</ele>
        <time>2017-06-04T09:12:50Z</time>
      </trkpt>
      <trkpt lat="45.70328" lon="4.62545">
        <ele>659</ele>
        <time>2017-06-04T09:12:56Z</time>
      </trkpt>
      <trkpt lat="45.70343" lon="4.62586">
        <ele>659</ele>
        <time>2017-06-04T09:13:04Z</time>
      </trkpt>
      <trkpt lat="45.70343" lon="4.62586">
        <ele>659</ele>
        <time>2017-06-04T09:13:10Z</time>
      </trkpt>
      <trkpt lat="45.70343" lon="4.62586">
        <ele>659</ele>
        <time>2017-06-04T09:13:10Z</time>
      </trkpt>
      <trkpt lat="45.70343" lon="4.62586">
        <ele>659</ele>
        <time>2017-06-04T09:14:44Z</time>
      </trkpt>
      <trkpt lat="45.70316" lon="4.62601">
        <ele>654</ele>
        <time>2017-06-04T09:14:44Z</time>
      </trkpt>
      <trkpt lat="45.70297" lon="4.62642">
        <ele>649</ele>
        <time>2017-06-04T09:14:51Z</time>
      </trkpt>
      <trkpt lat="45.70284" lon="4.62684">
        <ele>648</ele>
        <time>2017-06-04T09:14:56Z</time>
      </trkpt>
      <trkpt lat="45.70264" lon="4.62739">
        <ele>646</ele>
        <time>2017-06-04T09:15:01Z</time>
      </trkpt>
      <trkpt lat="45.70249" lon="4.62769">
        <ele>638</ele>
        <time>2017-06-04T09:15:04Z</time>
      </trkpt>
      <trkpt lat="45.70236" lon="4.62789">
        <ele>636</ele>
        <time>2017-06-04T09:15:08Z</time>
      </trkpt>
      <trkpt lat="45.70214" lon="4.62816">
        <ele>634</ele>
        <time>2017-06-04T09:15:13Z</time>
      </trkpt>
      <trkpt lat="45.70182" lon="4.62868">
        <ele>638</ele>
        <time>2017-06-04T09:15:19Z</time>
      </trkpt>
      <trkpt lat="45.70151" lon="4.62907">
        <ele>626</ele>
        <time>2017-06-04T09:15:25Z</time>
      </trkpt>
      <trkpt lat="45.7012" lon="4.62942">
        <ele>633</ele>
        <time>2017-06-04T09:15:32Z</time>
      </trkpt>
      <trkpt lat="45.70101" lon="4.62956">
        <ele>632</ele>
        <time>2017-06-04T09:15:37Z</time>
      </trkpt>
      <trkpt lat="45.70068" lon="4.62974">
        <ele>622</ele>
        <time>2017-06-04T09:15:43Z</time>
      </trkpt>
      <trkpt lat="45.70024" lon="4.62992">
        <ele>618</ele>
        <time>2017-06-04T09:15:48Z</time>
      </trkpt>
      <trkpt lat="45.6999" lon="4.63004">
        <ele>616</ele>
        <time>2017-06-04T09:15:56Z</time>
      </trkpt>
      <trkpt lat="45.69976" lon="4.62999">
        <ele>606</ele>
        <time>2017-06-04T09:16:01Z</time>
      </trkpt>
      <trkpt lat="45.69959" lon="4.63004">
        <ele>611</ele>
        <time>2017-06-04T09:16:08Z</time>
      </trkpt>
      <trkpt lat="45.69934" lon="4.63002">
        <ele>605</ele>
        <time>2017-06-04T09:16:14Z</time>
      </trkpt>
      <trkpt lat="45.69916" lon="4.63015">
        <ele>593</ele>
        <time>2017-06-04T09:16:22Z</time>
      </trkpt>
      <trkpt lat="45.69873" lon="4.63084">
        <ele>591</ele>
        <time>2017-06-04T09:16:36Z</time>
      </trkpt>
      <trkpt lat="45.69863" lon="4.63098">
        <ele>588</ele>
        <time>2017-06-04T09:16:42Z</time>
      </trkpt>
      <trkpt lat="45.69844" lon="4.63125">
        <ele>587</ele>
        <time>2017-06-04T09:16:52Z</time>
      </trkpt>
      <trkpt lat="45.69826" lon="4.6315">
        <ele>571</ele>
        <time>2017-06-04T09:16:57Z</time>
      </trkpt>
      <trkpt lat="45.69807" lon="4.63193">
        <ele>568</ele>
        <time>2017-06-04T09:17:03Z</time>
      </trkpt>
      <trkpt lat="45.69805" lon="4.63198">
        <ele>568</ele>
        <time>2017-06-04T09:17:05Z</time>
      </trkpt>
      <trkpt lat="45.69805" lon="4.63198">
        <ele>568</ele>
        <time>2017-06-04T09:17:11Z</time>
      </trkpt>
      <trkpt lat="45.69805" lon="4.63198">
        <ele>568</ele>
        <time>2017-06-04T09:17:28Z</time>
      </trkpt>
      <trkpt lat="45.69801" lon="4.63226">
        <ele>567</ele>
        <time>2017-06-04T09:17:28Z</time>
      </trkpt>
      <trkpt lat="45.69796" lon="4.63267">
        <ele>561</ele>
        <time>2017-06-04T09:17:33Z</time>
      </trkpt>
      <trkpt lat="45.69794" lon="4.63309">
        <ele>558</ele>
        <time>2017-06-04T09:17:39Z</time>
      </trkpt>
      <trkpt lat="45.69796" lon="4.63338">
        <ele>549</ele>
        <time>2017-06-04T09:17:43Z</time>
      </trkpt>
      <trkpt lat="45.69816" lon="4.63367">
        <ele>549</ele>
        <time>2017-06-04T09:17:48Z</time>
      </trkpt>
      <trkpt lat="45.69859" lon="4.6342">
        <ele>552</ele>
        <time>2017-06-04T09:18:00Z</time>
      </trkpt>
      <trkpt lat="45.69866" lon="4.63475">
        <ele>551</ele>
        <time>2017-06-04T09:18:06Z</time>
      </trkpt>
      <trkpt lat="45.69867" lon="4.63511">
        <ele>544</ele>
        <time>2017-06-04T09:18:12Z</time>
      </trkpt>
      <trkpt lat="45.6987" lon="4.63534">
        <ele>544</ele>
        <time>2017-06-04T09:18:15Z</time>
      </trkpt>
      <trkpt lat="45.69864" lon="4.63554">
        <ele>542</ele>
        <time>2017-06-04T09:18:18Z</time>
      </trkpt>
      <trkpt lat="45.69855" lon="4.63579">
        <ele>537</ele>
        <time>2017-06-04T09:18:23Z</time>
      </trkpt>
      <trkpt lat="45.69849" lon="4.636">
        <ele>536</ele>
        <time>2017-06-04T09:18:26Z</time>
      </trkpt>
      <trkpt lat="45.69844" lon="4.63624">
        <ele>537</ele>
        <time>2017-06-04T09:18:29Z</time>
      </trkpt>
      <trkpt lat="45.69839" lon="4.63648">
        <ele>534</ele>
        <time>2017-06-04T09:18:35Z</time>
      </trkpt>
      <trkpt lat="45.69804" lon="4.63728">
        <ele>520</ele>
        <time>2017-06-04T09:18:45Z</time>
      </trkpt>
      <trkpt lat="45.69792" lon="4.63752">
        <ele>519</ele>
        <time>2017-06-04T09:18:48Z</time>
      </trkpt>
      <trkpt lat="45.69784" lon="4.6377">
        <ele>518</ele>
        <time>2017-06-04T09:18:51Z</time>
      </trkpt>
      <trkpt lat="45.69766" lon="4.63793">
        <ele>516</ele>
        <time>2017-06-04T09:18:56Z</time>
      </trkpt>
      <trkpt lat="45.69763" lon="4.63837">
        <ele>511</ele>
        <time>2017-06-04T09:19:04Z</time>
      </trkpt>
      <trkpt lat="45.6977" lon="4.63876">
        <ele>511</ele>
        <time>2017-06-04T09:19:12Z</time>
      </trkpt>
      <trkpt lat="45.69747" lon="4.63896">
        <ele>501</ele>
        <time>2017-06-04T09:19:19Z</time>
      </trkpt>
      <trkpt lat="45.69756" lon="4.63908">
        <ele>505</ele>
        <time>2017-06-04T09:19:26Z</time>
      </trkpt>
      <trkpt lat="45.69789" lon="4.63925">
        <ele>507</ele>
        <time>2017-06-04T09:19:33Z</time>
      </trkpt>
      <trkpt lat="45.69792" lon="4.63951">
        <ele>507</ele>
        <time>2017-06-04T09:19:38Z</time>
      </trkpt>
      <trkpt lat="45.69779" lon="4.63973">
        <ele>504</ele>
        <time>2017-06-04T09:19:43Z</time>
      </trkpt>
      <trkpt lat="45.69768" lon="4.63997">
        <ele>500</ele>
        <time>2017-06-04T09:19:49Z</time>
      </trkpt>
      <trkpt lat="45.69763" lon="4.64017">
        <ele>500</ele>
        <time>2017-06-04T09:19:54Z</time>
      </trkpt>
      <trkpt lat="45.69764" lon="4.64047">
        <ele>501</ele>
        <time>2017-06-04T09:20:02Z</time>
      </trkpt>
      <trkpt lat="45.6977" lon="4.64066">
        <ele>501</ele>
        <time>2017-06-04T09:20:08Z</time>
      </trkpt>
      <trkpt lat="45.69779" lon="4.64084">
        <ele>502</ele>
        <time>2017-06-04T09:20:14Z</time>
      </trkpt>
      <trkpt lat="45.69793" lon="4.64105">
        <ele>504</ele>
        <time>2017-06-04T09:20:22Z</time>
      </trkpt>
      <trkpt lat="45.69801" lon="4.64115">
        <ele>505</ele>
        <time>2017-06-04T09:20:27Z</time>
      </trkpt>
      <trkpt lat="45.698" lon="4.64158">
        <ele>505</ele>
        <time>2017-06-04T09:20:37Z</time>
      </trkpt>
      <trkpt lat="45.69786" lon="4.64177">
        <ele>505</ele>
        <time>2017-06-04T09:20:42Z</time>
      </trkpt>
      <trkpt lat="45.69776" lon="4.64196">
        <ele>505</ele>
        <time>2017-06-04T09:20:50Z</time>
      </trkpt>
      <trkpt lat="45.69746" lon="4.64231">
        <ele>500</ele>
        <time>2017-06-04T09:21:01Z</time>
      </trkpt>
      <trkpt lat="45.69721" lon="4.64268">
        <ele>503</ele>
        <time>2017-06-04T09:21:08Z</time>
      </trkpt>
      <trkpt lat="45.69714" lon="4.64302">
        <ele>503</ele>
        <time>2017-06-04T09:21:14Z</time>
      </trkpt>
      <trkpt lat="45.69704" lon="4.64335">
        <ele>503</ele>
        <time>2017-06-04T09:21:23Z</time>
      </trkpt>
      <trkpt lat="45.69703" lon="4.64372">
        <ele>503</ele>
        <time>2017-06-04T09:21:31Z</time>
      </trkpt>
      <trkpt lat="45.69709" lon="4.64402">
        <ele>503</ele>
        <time>2017-06-04T09:21:36Z</time>
      </trkpt>
      <trkpt lat="45.69718" lon="4.6442">
        <ele>500</ele>
        <time>2017-06-04T09:21:40Z</time>
      </trkpt>
      <trkpt lat="45.69747" lon="4.64447">
        <ele>501</ele>
        <time>2017-06-04T09:21:45Z</time>
      </trkpt>
      <trkpt lat="45.6979" lon="4.64452">
        <ele>509</ele>
        <time>2017-06-04T09:21:52Z</time>
      </trkpt>
      <trkpt lat="45.69805" lon="4.64491">
        <ele>509</ele>
        <time>2017-06-04T09:21:57Z</time>
      </trkpt>
      <trkpt lat="45.69794" lon="4.6451">
        <ele>508</ele>
        <time>2017-06-04T09:22:03Z</time>
      </trkpt>
      <trkpt lat="45.69768" lon="4.64542">
        <ele>507</ele>
        <time>2017-06-04T09:22:09Z</time>
      </trkpt>
      <trkpt lat="45.69746" lon="4.64567">
        <ele>501</ele>
        <time>2017-06-04T09:22:15Z</time>
      </trkpt>
      <trkpt lat="45.69727" lon="4.64606">
        <ele>505</ele>
        <time>2017-06-04T09:22:24Z</time>
      </trkpt>
      <trkpt lat="45.69718" lon="4.64629">
        <ele>506</ele>
        <time>2017-06-04T09:22:32Z</time>
      </trkpt>
      <trkpt lat="45.69698" lon="4.64676">
        <ele>511</ele>
        <time>2017-06-04T09:22:46Z</time>
      </trkpt>
      <trkpt lat="45.69694" lon="4.64709">
        <ele>513</ele>
        <time>2017-06-04T09:22:56Z</time>
      </trkpt>
      <trkpt lat="45.69693" lon="4.64741">
        <ele>513</ele>
        <time>2017-06-04T09:23:05Z</time>
      </trkpt>
      <trkpt lat="45.69691" lon="4.64772">
        <ele>515</ele>
        <time>2017-06-04T09:23:13Z</time>
      </trkpt>
      <trkpt lat="45.69693" lon="4.64818">
        <ele>515</ele>
        <time>2017-06-04T09:23:22Z</time>
      </trkpt>
      <trkpt lat="45.69696" lon="4.64844">
        <ele>514</ele>
        <time>2017-06-04T09:23:27Z</time>
      </trkpt>
      <trkpt lat="45.69699" lon="4.64878">
        <ele>514</ele>
        <time>2017-06-04T09:23:34Z</time>
      </trkpt>
      <trkpt lat="45.69709" lon="4.64915">
        <ele>514</ele>
        <time>2017-06-04T09:23:41Z</time>
      </trkpt>
      <trkpt lat="45.69717" lon="4.64943">
        <ele>513</ele>
        <time>2017-06-04T09:23:46Z</time>
      </trkpt>
      <trkpt lat="45.69725" lon="4.64981">
        <ele>514</ele>
        <time>2017-06-04T09:23:53Z</time>
      </trkpt>
      <trkpt lat="45.69728" lon="4.65002">
        <ele>516</ele>
        <time>2017-06-04T09:23:58Z</time>
      </trkpt>
      <trkpt lat="45.69729" lon="4.65028">
        <ele>515</ele>
        <time>2017-06-04T09:24:05Z</time>
      </trkpt>
      <trkpt lat="45.6973" lon="4.65042">
        <ele>516</ele>
        <time>2017-06-04T09:24:08Z</time>
      </trkpt>
      <trkpt lat="45.69748" lon="4.65064">
        <ele>516</ele>
        <time>2017-06-04T09:24:16Z</time>
      </trkpt>
      <trkpt lat="45.69761" lon="4.65069">
        <ele>520</ele>
        <time>2017-06-04T09:24:22Z</time>
      </trkpt>
      <trkpt lat="45.69761" lon="4.65069">
        <ele>520</ele>
        <time>2017-06-04T09:24:28Z</time>
      </trkpt>
      <trkpt lat="45.69761" lon="4.65069">
        <ele>520</ele>
        <time>2017-06-04T09:24:32Z</time>
      </trkpt>
      <trkpt lat="45.69757" lon="4.65087">
        <ele>518</ele>
        <time>2017-06-04T09:24:32Z</time>
      </trkpt>
      <trkpt lat="45.69748" lon="4.65116">
        <ele>515</ele>
        <time>2017-06-04T09:24:37Z</time>
      </trkpt>
      <trkpt lat="45.69737" lon="4.65146">
        <ele>514</ele>
        <time>2017-06-04T09:24:43Z</time>
      </trkpt>
      <trkpt lat="45.69722" lon="4.65177">
        <ele>509</ele>
        <time>2017-06-04T09:24:49Z</time>
      </trkpt>
      <trkpt lat="45.69711" lon="4.6521">
        <ele>507</ele>
        <time>2017-06-04T09:24:55Z</time>
      </trkpt>
      <trkpt lat="45.69721" lon="4.65253">
        <ele>499</ele>
        <time>2017-06-04T09:25:03Z</time>
      </trkpt>
      <trkpt lat="45.69735" lon="4.6529">
        <ele>496</ele>
        <time>2017-06-04T09:25:11Z</time>
      </trkpt>
      <trkpt lat="45.69756" lon="4.65334">
        <ele>488</ele>
        <time>2017-06-04T09:25:19Z</time>
      </trkpt>
      <trkpt lat="45.69755" lon="4.65371">
        <ele>483</ele>
        <time>2017-06-04T09:25:24Z</time>
      </trkpt>
      <trkpt lat="45.69764" lon="4.65437">
        <ele>474</ele>
        <time>2017-06-04T09:25:30Z</time>
      </trkpt>
      <trkpt lat="45.69783" lon="4.65492">
        <ele>470</ele>
        <time>2017-06-04T09:25:35Z</time>
      </trkpt>
      <trkpt lat="45.69807" lon="4.65592">
        <ele>454</ele>
        <time>2017-06-04T09:25:42Z</time>
      </trkpt>
      <trkpt lat="45.69819" lon="4.65646">
        <ele>450</ele>
        <time>2017-06-04T09:25:48Z</time>
      </trkpt>
      <trkpt lat="45.69868" lon="4.65676">
        <ele>442</ele>
        <time>2017-06-04T09:25:54Z</time>
      </trkpt>
      <trkpt lat="45.69889" lon="4.65688">
        <ele>440</ele>
        <time>2017-06-04T09:26:00Z</time>
      </trkpt>
      <trkpt lat="45.69885" lon="4.65769">
        <ele>434</ele>
        <time>2017-06-04T09:26:07Z</time>
      </trkpt>
      <trkpt lat="45.69886" lon="4.65808">
        <ele>432</ele>
        <time>2017-06-04T09:26:10Z</time>
      </trkpt>
      <trkpt lat="45.69887" lon="4.6585">
        <ele>428</ele>
        <time>2017-06-04T09:26:13Z</time>
      </trkpt>
      <trkpt lat="45.69877" lon="4.65937">
        <ele>424</ele>
        <time>2017-06-04T09:26:19Z</time>
      </trkpt>
      <trkpt lat="45.69873" lon="4.65979">
        <ele>423</ele>
        <time>2017-06-04T09:26:22Z</time>
      </trkpt>
      <trkpt lat="45.69868" lon="4.66022">
        <ele>418</ele>
        <time>2017-06-04T09:26:25Z</time>
      </trkpt>
      <trkpt lat="45.6986" lon="4.66068">
        <ele>417</ele>
        <time>2017-06-04T09:26:28Z</time>
      </trkpt>
      <trkpt lat="45.69853" lon="4.66106">
        <ele>412</ele>
        <time>2017-06-04T09:26:31Z</time>
      </trkpt>
      <trkpt lat="45.69848" lon="4.66177">
        <ele>407</ele>
        <time>2017-06-04T09:26:37Z</time>
      </trkpt>
      <trkpt lat="45.69848" lon="4.66206">
        <ele>407</ele>
        <time>2017-06-04T09:26:40Z</time>
      </trkpt>
      <trkpt lat="45.69851" lon="4.66233">
        <ele>406</ele>
        <time>2017-06-04T09:26:46Z</time>
      </trkpt>
      <trkpt lat="45.69851" lon="4.66233">
        <ele>406</ele>
        <time>2017-06-04T09:26:54Z</time>
      </trkpt>
      <trkpt lat="45.69851" lon="4.66233">
        <ele>406</ele>
        <time>2017-06-04T09:26:54Z</time>
      </trkpt>
      <trkpt lat="45.69851" lon="4.66233">
        <ele>406</ele>
        <time>2017-06-04T09:27:01Z</time>
      </trkpt>
      <trkpt lat="45.69847" lon="4.66266">
        <ele>404</ele>
        <time>2017-06-04T09:27:01Z</time>
      </trkpt>
      <trkpt lat="45.69843" lon="4.66287">
        <ele>405</ele>
        <time>2017-06-04T09:27:04Z</time>
      </trkpt>
      <trkpt lat="45.69837" lon="4.66327">
        <ele>404</ele>
        <time>2017-06-04T09:27:09Z</time>
      </trkpt>
      <trkpt lat="45.69829" lon="4.66377">
        <ele>402</ele>
        <time>2017-06-04T09:27:14Z</time>
      </trkpt>
      <trkpt lat="45.69822" lon="4.66407">
        <ele>402</ele>
        <time>2017-06-04T09:27:17Z</time>
      </trkpt>
      <trkpt lat="45.69807" lon="4.66464">
        <ele>404</ele>
        <time>2017-06-04T09:27:23Z</time>
      </trkpt>
      <trkpt lat="45.69795" lon="4.66506">
        <ele>406</ele>
        <time>2017-06-04T09:27:28Z</time>
      </trkpt>
      <trkpt lat="45.69786" lon="4.66528">
        <ele>407</ele>
        <time>2017-06-04T09:27:31Z</time>
      </trkpt>
      <trkpt lat="45.69765" lon="4.66576">
        <ele>408</ele>
        <time>2017-06-04T09:27:38Z</time>
      </trkpt>
      <trkpt lat="45.69753" lon="4.66649">
        <ele>401</ele>
        <time>2017-06-04T09:27:44Z</time>
      </trkpt>
      <trkpt lat="45.69751" lon="4.66716">
        <ele>396</ele>
        <time>2017-06-04T09:27:49Z</time>
      </trkpt>
      <trkpt lat="45.69751" lon="4.66809">
        <ele>390</ele>
        <time>2017-06-04T09:27:55Z</time>
      </trkpt>
      <trkpt lat="45.69753" lon="4.66904">
        <ele>385</ele>
        <time>2017-06-04T09:28:01Z</time>
      </trkpt>
      <trkpt lat="45.69752" lon="4.67006">
        <ele>380</ele>
        <time>2017-06-04T09:28:07Z</time>
      </trkpt>
      <trkpt lat="45.69754" lon="4.671">
        <ele>375</ele>
        <time>2017-06-04T09:28:13Z</time>
      </trkpt>
      <trkpt lat="45.69758" lon="4.67175">
        <ele>373</ele>
        <time>2017-06-04T09:28:18Z</time>
      </trkpt>
      <trkpt lat="45.69756" lon="4.67234">
        <ele>372</ele>
        <time>2017-06-04T09:28:22Z</time>
      </trkpt>
      <trkpt lat="45.69751" lon="4.67275">
        <ele>369</ele>
        <time>2017-06-04T09:28:25Z</time>
      </trkpt>
      <trkpt lat="45.69745" lon="4.67316">
        <ele>367</ele>
        <time>2017-06-04T09:28:28Z</time>
      </trkpt>
      <trkpt lat="45.69717" lon="4.67382">
        <ele>364</ele>
        <time>2017-06-04T09:28:34Z</time>
      </trkpt>
      <trkpt lat="45.69701" lon="4.67397">
        <ele>364</ele>
        <time>2017-06-04T09:28:37Z</time>
      </trkpt>
      <trkpt lat="45.69687" lon="4.67405">
        <ele>363</ele>
        <time>2017-06-04T09:28:40Z</time>
      </trkpt>
      <trkpt lat="45.69656" lon="4.67422">
        <ele>361</ele>
        <time>2017-06-04T09:28:46Z</time>
      </trkpt>
      <trkpt lat="45.69626" lon="4.67427">
        <ele>359</ele>
        <time>2017-06-04T09:28:52Z</time>
      </trkpt>
      <trkpt lat="45.69583" lon="4.67421">
        <ele>358</ele>
        <time>2017-06-04T09:28:58Z</time>
      </trkpt>
      <trkpt lat="45.69538" lon="4.67433">
        <ele>355</ele>
        <time>2017-06-04T09:29:04Z</time>
      </trkpt>
      <trkpt lat="45.69478" lon="4.67465">
        <ele>348</ele>
        <time>2017-06-04T09:29:10Z</time>
      </trkpt>
      <trkpt lat="45.69381" lon="4.67488">
        <ele>340</ele>
        <time>2017-06-04T09:29:17Z</time>
      </trkpt>
      <trkpt lat="45.69298" lon="4.6749">
        <ele>335</ele>
        <time>2017-06-04T09:29:24Z</time>
      </trkpt>
      <trkpt lat="45.69224" lon="4.67442">
        <ele>331</ele>
        <time>2017-06-04T09:29:29Z</time>
      </trkpt>
      <trkpt lat="45.69186" lon="4.67419">
        <ele>331</ele>
        <time>2017-06-04T09:29:32Z</time>
      </trkpt>
      <trkpt lat="45.69169" lon="4.67425">
        <ele>330</ele>
        <time>2017-06-04T09:29:41Z</time>
      </trkpt>
      <trkpt lat="45.69184" lon="4.67462">
        <ele>331</ele>
        <time>2017-06-04T09:29:51Z</time>
      </trkpt>
      <trkpt lat="45.69175" lon="4.67487">
        <ele>330</ele>
        <time>2017-06-04T09:29:57Z</time>
      </trkpt>
      <trkpt lat="45.69151" lon="4.6749">
        <ele>329</ele>
        <time>2017-06-04T09:30:04Z</time>
      </trkpt>
      <trkpt lat="45.69134" lon="4.67475">
        <ele>329</ele>
        <time>2017-06-04T09:30:11Z</time>
      </trkpt>
      <trkpt lat="45.69131" lon="4.67443">
        <ele>329</ele>
        <time>2017-06-04T09:30:18Z</time>
      </trkpt>
      <trkpt lat="45.69122" lon="4.67437">
        <ele>329</ele>
        <time>2017-06-04T09:30:24Z</time>
      </trkpt>
      <trkpt lat="45.69098" lon="4.6744">
        <ele>328</ele>
        <time>2017-06-04T09:30:36Z</time>
      </trkpt>
      <trkpt lat="45.69091" lon="4.67461">
        <ele>328</ele>
        <time>2017-06-04T09:30:43Z</time>
      </trkpt>
      <trkpt lat="45.69088" lon="4.67479">
        <ele>328</ele>
        <time>2017-06-04T09:30:47Z</time>
      </trkpt>
      <trkpt lat="45.69088" lon="4.67479">
        <ele>328</ele>
        <time>2017-06-04T09:30:54Z</time>
      </trkpt>
      <trkpt lat="45.69088" lon="4.67479">
        <ele>328</ele>
        <time>2017-06-04T09:31:15Z</time>
      </trkpt>
      <trkpt lat="45.69085" lon="4.6746">
        <ele>328</ele>
        <time>2017-06-04T09:31:15Z</time>
      </trkpt>
      <trkpt lat="45.69081" lon="4.67439">
        <ele>327</ele>
        <time>2017-06-04T09:31:21Z</time>
      </trkpt>
      <trkpt lat="45.69046" lon="4.67438">
        <ele>327</ele>
        <time>2017-06-04T09:31:32Z</time>
      </trkpt>
      <trkpt lat="45.69035" lon="4.67451">
        <ele>327</ele>
        <time>2017-06-04T09:31:38Z</time>
      </trkpt>
      <trkpt lat="45.69035" lon="4.67451">
        <ele>327</ele>
        <time>2017-06-04T09:31:45Z</time>
      </trkpt>
      <trkpt lat="45.69035" lon="4.67451">
        <ele>327</ele>
        <time>2017-06-04T09:31:45Z</time>
      </trkpt>
      <trkpt lat="45.69035" lon="4.67451">
        <ele>327</ele>
        <time>2017-06-04T09:35:54Z</time>
      </trkpt>
      <trkpt lat="45.69053" lon="4.67439">
        <ele>327</ele>
        <time>2017-06-04T09:35:54Z</time>
      </trkpt>
      <trkpt lat="45.6907" lon="4.67437">
        <ele>327</ele>
        <time>2017-06-04T09:36:00Z</time>
      </trkpt>
      <trkpt lat="45.69084" lon="4.6744">
        <ele>328</ele>
        <time>2017-06-04T09:36:06Z</time>
      </trkpt>
      <trkpt lat="45.69088" lon="4.67457">
        <ele>328</ele>
        <time>2017-06-04T09:36:20Z</time>
      </trkpt>
      <trkpt lat="45.69087" lon="4.67476">
        <ele>328</ele>
        <time>2017-06-04T09:36:27Z</time>
      </trkpt>
      <trkpt lat="45.69087" lon="4.67476">
        <ele>328</ele>
        <time>2017-06-04T09:36:35Z</time>
      </trkpt>
      <trkpt lat="45.69087" lon="4.67476">
        <ele>328</ele>
        <time>2017-06-04T09:36:39Z</time>
      </trkpt>
      <trkpt lat="45.69087" lon="4.67483">
        <ele>328</ele>
        <time>2017-06-04T09:36:39Z</time>
      </trkpt>
      <trkpt lat="45.69087" lon="4.67487">
        <ele>328</ele>
        <time>2017-06-04T09:36:45Z</time>
      </trkpt>
      <trkpt lat="45.69087" lon="4.67487">
        <ele>328</ele>
        <time>2017-06-04T09:36:53Z</time>
      </trkpt>
      <trkpt lat="45.69087" lon="4.67487">
        <ele>328</ele>
        <time>2017-06-04T09:39:18Z</time>
      </trkpt>
    </trkseg>
  </trk>
</gpx>